M I D A S
Marine Information and Data Acquisition System
Tripno 2215 of the Zeeleeuw from 2011-11-18 06:19:57 to 2011-11-18 14:05:12
Back to CruiseResearch ActivitiesStationsMapUnderway DataData graphs

EquipmentUnitsComment
TimeDGPSUTC
LatitudeDGPSDM.mWGS84
LongitudeDGPSDM.mWGS84
TemperatureSBE03/SBE38deg celciusITS90
ConductivitySBE21S/mITS90
SalinitySBE21 Practical Salinity Units
ChlorophylAChelsea fluorimeterg/lCalibrated in Aceton
Missing or incorrect values are displayed as -999
Sea surface data collected by the RV Zeeleeuw from 2011-11-18 06:26:42 to 2011-11-18 14:21:20
                                                                                    Next 1000 lines
Time Latitude Longitude Temperature Conductivity Salinity ChlorophylA
2011-11-18 06:26:51 51°13.639 2°56.019 17.2286 4.561831 33.62464 -3.020363
2011-11-18 06:26:56 51°13.639 2°56.019 17.2275 4.561831 33.62464 -3.020363
2011-11-18 06:27:01 51°13.639 2°56.019 17.227 4.561728 33.623783 -3.020363
2011-11-18 06:27:06 51°13.639 2°56.019 17.2281 4.561624 33.622927 -3.020363
2011-11-18 06:27:11 51°13.64 2°56.019 17.229 4.56152 33.62144 -3.020363
2011-11-18 06:27:16 51°13.64 2°56.019 17.2299 4.561416 33.620584 -3.020363
2011-11-18 06:27:20 51°13.64 2°56.019 17.2337 4.561416 33.620584 -3.020363
2011-11-18 06:27:26 51°13.64 2°56.019 17.2341 4.561416 33.620584 -3.020363
2011-11-18 06:27:31 51°13.639 2°56.02 17.2341 4.561416 33.619954 -3.020363
2011-11-18 06:27:35 51°13.64 2°56.019 17.2349 4.56152 33.62081 -3.020363
2011-11-18 06:27:40 51°13.64 2°56.02 17.237 4.561209 33.618241 -3.020363
2011-11-18 06:27:45 51°13.639 2°56.02 17.2378 4.560898 33.615042 -3.020363
2011-11-18 06:27:51 51°13.639 2°56.02 17.2351 4.561831 33.622748 -3.020363
2011-11-18 06:27:55 51°13.64 2°56.019 17.2352 4.561831 33.622748 -3.020363
2011-11-18 06:28:00 51°13.64 2°56.02 17.2355 4.561831 33.622748 -3.020363
2011-11-18 06:28:05 51°13.64 2°56.019 17.237 4.561416 33.618693 -3.020363
2011-11-18 06:28:10 51°13.641 2°56.019 17.2369 4.561416 33.619323 -3.020363
2011-11-18 06:28:15 51°13.64 2°56.019 17.2388 4.561209 33.616981 -3.020363
2011-11-18 06:28:19 51°13.64 2°56.02 17.2393 4.56152 33.619549 -3.020363
2011-11-18 06:28:25 51°13.64 2°56.02 17.2393 4.56152 33.619549 -3.020363
2011-11-18 06:28:30 51°13.64 2°56.019 17.239 4.561624 33.620405 -3.020363
2011-11-18 06:28:35 51°13.64 2°56.019 17.2422 4.561313 33.617837 -3.020363
2011-11-18 06:28:40 51°13.639 2°56.019 17.2426 4.561001 33.614638 -3.020363
2011-11-18 06:28:45 51°13.639 2°56.019 17.2462 4.560898 33.613782 -3.020363
2011-11-18 06:28:51 51°13.64 2°56.019 17.251 4.561935 33.622344 -3.020363
2011-11-18 06:28:56 51°13.64 2°56.019 17.258 4.561935 33.622344 -3.020363
2011-11-18 06:29:00 51°13.64 2°56.019 17.2542 4.563491 33.635188 -3.020363
2011-11-18 06:29:06 51°13.64 2°56.019 17.2571 4.563699 33.6369 -3.020363
2011-11-18 06:29:11 51°13.64 2°56.019 17.2562 4.562661 33.628337 -3.020363
2011-11-18 06:29:16 51°13.64 2°56.019 17.2508 4.564321 33.641407 -3.020363
2011-11-18 06:29:20 51°13.64 2°56.02 17.2274 4.56567 33.652539 -3.020363
2011-11-18 06:29:26 51°13.639 2°56.02 17.2368 4.56567 33.652539 -3.020363
2011-11-18 06:29:31 51°13.638 2°56.019 17.2416 4.563388 33.633701 -3.020363
2011-11-18 06:29:36 51°13.638 2°56.018 17.2425 4.563803 33.637126 -3.020363
2011-11-18 06:29:40 51°13.638 2°56.018 17.2458 4.563388 33.63307 -3.020363
2011-11-18 06:29:46 51°13.639 2°56.019 17.2488 4.563595 33.634783 -3.020363
2011-11-18 06:29:50 51°13.64 2°56.019 17.2483 4.563699 33.635639 -3.020363
2011-11-18 06:29:56 51°13.64 2°56.019 17.2494 4.563699 33.635639 -3.020363
2011-11-18 06:30:00 51°13.639 2°56.019 17.249 4.563595 33.634783 -3.020363
2011-11-18 06:30:05 51°13.639 2°56.019 17.246 4.563491 33.633926 -3.020363
2011-11-18 06:30:10 51°13.639 2°56.019 17.2451 4.563491 33.633296 -3.020363
2011-11-18 06:30:15 51°13.639 2°56.019 17.2498 4.563595 33.634152 -3.020363
2011-11-18 06:30:20 51°13.639 2°56.019 17.2662 4.561831 33.619597 -3.020363
2011-11-18 06:30:25 51°13.639 2°56.019 17.2627 4.561831 33.619597 -3.020363
2011-11-18 06:30:30 51°13.639 2°56.019 17.2775 4.564633 33.642084 -3.020363
2011-11-18 06:30:35 51°13.638 2°56.018 17.2661 4.562246 33.622391 -3.020363
2011-11-18 06:30:40 51°13.638 2°56.018 17.2674 4.563803 33.635234 -3.020363
2011-11-18 06:30:45 51°13.638 2°56.019 17.2658 4.564944 33.644653 -3.020363
2011-11-18 06:30:50 51°13.638 2°56.019 17.2684 4.563388 33.631809 -3.020363
2011-11-18 06:30:55 51°13.638 2°56.018 17.2742 4.563388 33.631809 -3.020363
2011-11-18 06:31:00 51°13.638 2°56.018 17.2728 4.563491 33.632665 -3.020363
2011-11-18 06:31:05 51°13.638 2°56.018 17.2731 4.564425 33.639741 -3.020363
2011-11-18 06:31:10 51°13.638 2°56.019 17.2761 4.56318 33.629466 -3.020363
2011-11-18 06:31:15 51°13.637 2°56.018 17.2761 4.563076 33.62861 -3.020363
2011-11-18 06:31:21 51°13.634 2°56.016 17.2746 4.563388 33.630548 -3.020363
2011-11-18 06:31:25 51°13.634 2°56.016 17.267 4.563388 33.630548 -3.020363
2011-11-18 06:31:30 51°13.633 2°56.016 17.2705 4.563076 33.62798 -3.020363
2011-11-18 06:31:35 51°13.633 2°56.016 17.2851 4.562973 33.627124 -3.020363
2011-11-18 06:31:40 51°13.634 2°56.016 17.2811 4.563076 33.627349 -3.020363
2011-11-18 06:31:46 51°13.635 2°56.017 17.276 4.563803 33.633342 -3.020363
2011-11-18 06:31:51 51°13.635 2°56.017 17.2693 4.561105 33.611083 -3.020363
2011-11-18 06:31:56 51°13.635 2°56.017 17.2707 4.561105 33.611083 -3.020363
2011-11-18 06:32:01 51°13.636 2°56.017 17.271 4.561831 33.616446 -3.020363
2011-11-18 06:32:06 51°13.637 2°56.017 17.2729 4.561624 33.614734 -3.020363
2011-11-18 06:32:10 51°13.637 2°56.017 17.2725 4.561209 33.611309 -3.020363
2011-11-18 06:32:16 51°13.637 2°56.017 17.2715 4.561416 33.613021 -3.020363
2011-11-18 06:32:20 51°13.637 2°56.017 17.2671 4.561935 33.617302 -3.020363
2011-11-18 06:32:26 51°13.637 2°56.017 17.2664 4.561935 33.617302 -3.020363
2011-11-18 06:32:30 51°13.637 2°56.017 17.2684 4.561728 33.61496 -3.020363
2011-11-18 06:32:36 51°13.638 2°56.018 17.2678 4.561624 33.614103 -3.020363
2011-11-18 06:32:40 51°13.639 2°56.018 17.2639 4.562246 33.61861 -3.020363
2011-11-18 06:32:45 51°13.638 2°56.018 17.2622 4.563491 33.629513 -3.020363
2011-11-18 06:32:50 51°13.638 2°56.018 17.2593 4.564633 33.6383 -3.020363
2011-11-18 06:32:56 51°13.638 2°56.018 17.2558 4.564633 33.6383 -3.020363
2011-11-18 06:33:01 51°13.638 2°56.018 17.262 4.56401 33.633163 -3.020363
2011-11-18 06:33:06 51°13.638 2°56.018 17.2613 4.562558 33.621178 -3.020363
2011-11-18 06:33:11 51°13.637 2°56.018 17.263 4.563906 33.631677 -3.020363
2011-11-18 06:33:15 51°13.637 2°56.018 17.2656 4.563491 33.628253 -3.020363
2011-11-18 06:33:21 51°13.636 2°56.018 17.2675 4.563284 33.62654 -3.020363
2011-11-18 06:33:26 51°13.636 2°56.018 17.2697 4.563284 33.62654 -3.020363
2011-11-18 06:33:31 51°13.637 2°56.018 17.2707 4.563076 33.624198 -3.020363
2011-11-18 06:33:36 51°13.637 2°56.018 17.2715 4.562661 33.620774 -3.020363
2011-11-18 06:33:41 51°13.637 2°56.018 17.2725 4.56318 33.625054 -3.020363
2011-11-18 06:33:46 51°13.636 2°56.018 17.2726 4.56318 33.625054 -3.020363
2011-11-18 06:33:51 51°13.635 2°56.018 17.2727 4.562558 33.619918 -3.020363
2011-11-18 06:33:56 51°13.635 2°56.018 17.2711 4.562558 33.619918 -3.020363
2011-11-18 06:34:00 51°13.635 2°56.018 17.2726 4.563699 33.628704 -3.020363
2011-11-18 06:34:05 51°13.635 2°56.017 17.2715 4.562558 33.619288 -3.020363
2011-11-18 06:34:10 51°13.635 2°56.017 17.2712 4.563388 33.626136 -3.020363
2011-11-18 06:34:15 51°13.635 2°56.017 17.2722 4.56235 33.616945 -3.020363
2011-11-18 06:34:20 51°13.635 2°56.017 17.2659 4.563906 33.629786 -3.020363
2011-11-18 06:34:25 51°13.634 2°56.017 17.2191 4.563906 33.629786 -3.020363
2011-11-18 06:34:30 51°13.634 2°56.017 17.184 4.566085 33.647764 -3.020363
2011-11-18 06:34:35 51°13.634 2°56.016 17.1389 4.567641 33.660606 -3.020363
2011-11-18 06:34:40 51°13.634 2°56.014 17.2293 4.554776 33.553838 -3.020363
2011-11-18 06:34:45 51°13.635 2°56.011 17.2434 4.569716 33.6771 -3.020363
2011-11-18 06:34:51 51°13.636 2°56.006 17.2519 4.566293 33.649476 -3.020363
2011-11-18 06:34:55 51°13.636 2°56.002 17.2511 4.566293 33.649476 -3.020363
2011-11-18 06:35:00 51°13.637 2°55.997 17.2972 4.562972 33.621451 -3.020363
2011-11-18 06:35:07 51°13.639 2°55.988 17.3096 4.564529 33.634922 -3.020363
2011-11-18 06:35:13 51°13.64 2°55.98 17.3419 4.562973 33.622082 -3.020363
2011-11-18 06:35:19 51°13.642 2°55.971 17.3591 4.56069 33.60262 -3.020363
2011-11-18 06:35:24 51°13.644 2°55.964 17.3569 4.562454 33.617171 -3.020363
2011-11-18 06:35:29 51°13.645 2°55.957 17.318 4.562454 33.617171 -3.020363
2011-11-18 06:35:33 51°13.647 2°55.951 17.3322 4.559237 33.590008 -3.020363
2011-11-18 06:35:39 51°13.649 2°55.942 17.3622 4.571999 33.695938 -3.020363
2011-11-18 06:35:44 51°13.65 2°55.936 17.3925 4.56318 33.623794 -3.020363
2011-11-18 06:35:49 51°13.651 2°55.93 17.4271 4.517324 33.244524 -3.020363
2011-11-18 06:35:54 51°13.652 2°55.927 17.4228 4.548447 33.499133 -3.020363
2011-11-18 06:35:59 51°13.652 2°55.926 17.3312 4.548447 33.499133 -3.020363
2011-11-18 06:36:04 51°13.652 2°55.925 17.1069 4.536517 33.398902 -3.020363
2011-11-18 06:36:09 51°13.654 2°55.922 17.167 4.558615 33.581726 -3.020363
2011-11-18 06:36:14 51°13.655 2°55.92 17.0901 4.563076 33.619157 -3.020363
2011-11-18 06:36:19 51°13.656 2°55.917 17.1418 4.55903 33.587037 -3.020363
2011-11-18 06:36:24 51°13.657 2°55.913 17.0981 4.556851 33.568436 -3.020363
2011-11-18 06:36:29 51°13.659 2°55.908 17.216 4.556851 33.568436 -3.020363
2011-11-18 06:36:34 51°13.661 2°55.904 17.2154 4.55654 33.567127 -3.020363
2011-11-18 06:36:39 51°13.663 2°55.898 17.2764 4.560794 33.601587 -3.020363
2011-11-18 06:36:44 51°13.666 2°55.893 17.2439 4.562142 33.612714 -3.020363
2011-11-18 06:36:49 51°13.669 2°55.886 17.2643 4.56318 33.621273 -3.020363
2011-11-18 06:36:54 51°13.673 2°55.881 17.2676 4.564736 33.634113 -3.020363
2011-11-18 06:36:59 51°13.675 2°55.874 17.2759 4.564736 33.634113 -3.020363
2011-11-18 06:37:04 51°13.678 2°55.867 17.2876 4.567123 33.653802 -3.020363
2011-11-18 06:37:09 51°13.681 2°55.86 17.2846 4.567226 33.654659 -3.020363
2011-11-18 06:37:13 51°13.683 2°55.855 17.274 4.55903 33.586408 -3.020363
2011-11-18 06:37:19 51°13.687 2°55.847 17.3005 4.56235 33.613796 -3.020363
2011-11-18 06:37:24 51°13.691 2°55.84 17.2935 4.556644 33.566725 -3.020363
2011-11-18 06:37:29 51°13.694 2°55.833 17.3117 4.556644 33.566725 -3.020363
2011-11-18 06:37:33 51°13.696 2°55.828 17.2877 4.56152 33.606948 -3.020363
2011-11-18 06:37:39 51°13.7 2°55.819 17.2905 4.55986 33.593254 -3.020363
2011-11-18 06:37:44 51°13.704 2°55.812 17.2899 4.55654 33.56524 -3.020363
2011-11-18 06:37:49 51°13.707 2°55.806 17.2919 4.559134 33.587264 -3.020363
2011-11-18 06:37:53 51°13.71 2°55.8 17.2921 4.561416 33.606092 -3.020363
2011-11-18 06:37:58 51°13.715 2°55.793 17.3117 4.561416 33.606092 -3.020363
2011-11-18 06:38:04 51°13.72 2°55.784 17.3104 4.557577 33.573798 -3.020363
2011-11-18 06:38:09 51°13.724 2°55.777 17.3153 4.557785 33.575509 -3.020363
2011-11-18 06:38:14 51°13.729 2°55.77 17.3149 4.562557 33.614877 -3.020363
2011-11-18 06:38:19 51°13.733 2°55.763 17.3174 4.558407 33.580644 -3.020363
2011-11-18 06:38:24 51°13.738 2°55.756 17.3134 4.556644 33.566096 -3.020363
2011-11-18 06:38:29 51°13.742 2°55.749 17.3121 4.556644 33.566096 -3.020363
2011-11-18 06:38:34 51°13.747 2°55.742 17.3005 4.5582 33.578303 -3.020363
2011-11-18 06:38:39 51°13.752 2°55.734 17.292 4.556125 33.561189 -3.020363
2011-11-18 06:38:44 51°13.757 2°55.727 17.2903 4.560794 33.599068 -3.020363
2011-11-18 06:38:49 51°13.762 2°55.719 17.29 4.551871 33.52548 -3.020363
2011-11-18 06:38:54 51°13.768 2°55.712 17.2932 4.555087 33.551375 -3.020363
2011-11-18 06:38:59 51°13.774 2°55.704 17.2996 4.555087 33.551375 -3.020363
2011-11-18 06:39:04 51°13.779 2°55.696 17.3028 4.558096 33.576818 -3.020363
2011-11-18 06:39:09 51°13.785 2°55.689 17.3166 4.556436 33.562498 -3.020363
2011-11-18 06:39:14 51°13.79 2°55.681 17.2929 4.556644 33.564838 -3.020363
2011-11-18 06:39:19 51°13.795 2°55.674 17.3017 4.556851 33.566549 -3.020363
2011-11-18 06:39:24 51°13.801 2°55.667 17.3188 4.55405 33.543447 -3.020363
2011-11-18 06:39:29 51°13.806 2°55.66 17.3224 4.55405 33.543447 -3.020363
2011-11-18 06:39:34 51°13.812 2°55.654 17.3318 4.559756 33.59051 -3.020363
2011-11-18 06:39:38 51°13.816 2°55.649 17.3338 4.553116 33.535747 -3.020363
2011-11-18 06:39:43 51°13.822 2°55.644 17.287 4.553012 33.534891 -3.020363
2011-11-18 06:39:49 51°13.828 2°55.637 17.308 4.543571 33.456423 -3.020363
2011-11-18 06:39:53 51°13.833 2°55.633 17.3036 4.538591 33.414751 -3.020363
2011-11-18 06:39:58 51°13.838 2°55.628 17.3271 4.538591 33.414751 -3.020363
2011-11-18 06:40:04 51°13.845 2°55.624 17.3095 4.554465 33.545612 -3.020363
2011-11-18 06:40:09 51°13.852 2°55.62 17.3252 4.525416 33.305565 -3.020363
2011-11-18 06:40:13 51°13.857 2°55.617 17.3366 4.551767 33.523369 -3.020363
2011-11-18 06:40:18 51°13.863 2°55.615 17.345 4.540978 33.434417 -3.020363
2011-11-18 06:40:24 51°13.871 2°55.614 17.3315 4.558822 33.582179 -3.020363
2011-11-18 06:40:29 51°13.877 2°55.612 17.3144 4.558822 33.582179 -3.020363
2011-11-18 06:40:34 51°13.883 2°55.612 17.318 4.543364 33.454713 -3.020363
2011-11-18 06:40:39 51°13.889 2°55.611 17.3198 4.553324 33.53683 -3.020363
2011-11-18 06:40:43 51°13.894 2°55.611 17.3285 4.54409 33.460072 -3.020363
2011-11-18 06:40:49 51°13.902 2°55.611 17.3128 4.540666 33.431852 -3.020363
2011-11-18 06:40:54 51°13.907 2°55.612 17.3355 4.536516 33.397651 -3.020363
2011-11-18 06:40:59 51°13.912 2°55.614 17.3468 4.536516 33.397651 -3.020363
2011-11-18 06:41:04 51°13.917 2°55.616 17.3428 4.542949 33.450039 -3.020363
2011-11-18 06:41:09 51°13.922 2°55.619 17.3415 4.539421 33.420965 -3.020363
2011-11-18 06:41:14 51°13.927 2°55.621 17.3321 4.544297 33.461156 -3.020363
2011-11-18 06:41:19 51°13.932 2°55.625 17.3293 4.539836 33.425011 -3.020363
2011-11-18 06:41:23 51°13.936 2°55.628 17.3279 4.54658 33.479972 -3.020363
2011-11-18 06:41:29 51°13.941 2°55.632 17.3262 4.54658 33.479972 -3.020363
2011-11-18 06:41:34 51°13.946 2°55.637 17.331 4.542223 33.444052 -3.020363
2011-11-18 06:41:39 51°13.95 2°55.641 17.3329 4.545439 33.470564 -3.020363
2011-11-18 06:41:44 51°13.954 2°55.646 17.3382 4.538903 33.41669 -3.020363
2011-11-18 06:41:49 51°13.958 2°55.65 17.3731 4.535998 33.39275 -3.020363
2011-11-18 06:41:54 51°13.961 2°55.656 17.3649 4.514419 33.214378 -3.020363
2011-11-18 06:41:59 51°13.964 2°55.661 17.4066 4.514419 33.214378 -3.020363
2011-11-18 06:42:04 51°13.967 2°55.665 17.4221 4.512552 33.198381 -3.020363
2011-11-18 06:42:08 51°13.968 2°55.669 17.4172 4.369618 32.022364 -3.020363
2011-11-18 06:42:13 51°13.97 2°55.673 17.4156 4.42438 32.470013 -3.020363
2011-11-18 06:42:18 51°13.972 2°55.676 15.9028 4.470331 32.847975 -3.020363
2011-11-18 06:42:23 51°13.973 2°55.678 14.7402 4.592024 33.875878 -3.020363
2011-11-18 06:42:28 51°13.974 2°55.679 13.442 4.592024 33.875878 -3.020363
2011-11-18 06:42:33 51°13.975 2°55.678 12.5251 4.560068 33.611343 -3.020363
2011-11-18 06:42:39 51°13.976 2°55.677 12.0875 4.358934 31.825369 -3.020363
2011-11-18 06:42:44 51°13.977 2°55.674 11.7165 4.376885 32.498432 -3.020363
2011-11-18 06:42:49 51°13.977 2°55.671 11.7236 4.323074 32.762479 -3.020363
2011-11-18 06:42:53 51°13.978 2°55.667 11.3945 4.439556 34.450935 -3.020363
2011-11-18 06:42:58 51°13.979 2°55.661 11.2927 4.439556 34.450935 -3.020363
2011-11-18 06:43:03 51°13.981 2°55.654 11.219 4.315118 34.377114 -3.020363
2011-11-18 06:43:09 51°13.983 2°55.644 11.2371 4.219529 34.356945 -3.020363
2011-11-18 06:43:13 51°13.986 2°55.637 11.0126 4.137019 34.458537 -3.020363
2011-11-18 06:43:18 51°13.989 2°55.627 10.8785 4.034207 34.170247 -3.020363
2011-11-18 06:43:23 51°13.992 2°55.617 10.9007 3.954002 33.879492 -3.020363
2011-11-18 06:43:28 51°13.996 2°55.606 10.8353 3.954002 33.879492 -3.020363
2011-11-18 06:43:33 51°14 2°55.595 10.8084 3.890592 33.567376 -3.020363
2011-11-18 06:43:37 51°14.003 2°55.585 10.8172 3.842004 33.335406 -3.020363
2011-11-18 06:43:42 51°14.008 2°55.573 10.7237 3.788344 32.983305 -3.020363
2011-11-18 06:43:47 51°14.013 2°55.561 10.6761 3.75033 32.786427 -3.020363
2011-11-18 06:43:53 51°14.019 2°55.546 10.6805 3.718016 32.636118 -3.020363
2011-11-18 06:43:57 51°14.024 2°55.536 10.6448 3.718016 32.636118 -3.020363
2011-11-18 06:44:02 51°14.029 2°55.524 10.6992 3.69461 32.509662 -3.020363
2011-11-18 06:44:07 51°14.036 2°55.512 10.6615 3.667476 32.302338 -3.020363
2011-11-18 06:44:12 51°14.043 2°55.502 10.731 3.640966 32.112137 -3.020363
2011-11-18 06:44:17 51°14.05 2°55.492 10.6502 3.622015 31.985732 -3.020363
2011-11-18 06:44:22 51°14.058 2°55.483 10.5615 3.609383 31.913481 -3.020363
2011-11-18 06:44:27 51°14.066 2°55.475 10.5679 3.609383 31.913481 -3.020363
2011-11-18 06:44:32 51°14.073 2°55.467 10.4866 3.597061 31.838036 -3.020363
2011-11-18 06:44:37 51°14.081 2°55.459 10.4806 3.585153 31.747512 -3.020363
2011-11-18 06:44:41 51°14.088 2°55.454 10.4722 3.575316 31.665145 -3.020363
2011-11-18 06:44:46 51°14.096 2°55.446 10.4682 3.565998 31.596927 -3.020363
2011-11-18 06:44:53 51°14.108 2°55.437 10.4784 3.556576 31.52309 -3.020363
2011-11-18 06:44:58 51°14.116 2°55.43 10.4481 3.556576 31.52309 -3.020363
2011-11-18 06:45:02 51°14.123 2°55.425 10.4297 3.550467 31.504517 -3.020363
2011-11-18 06:45:07 51°14.132 2°55.418 10.4419 3.543945 31.474261 -3.020363
2011-11-18 06:45:12 51°14.141 2°55.412 10.4813 3.53794 31.446801 -3.020363
2011-11-18 06:45:18 51°14.151 2°55.404 10.4389 3.532143 31.428925 -3.020363
2011-11-18 06:45:23 51°14.16 2°55.397 10.4417 3.525931 31.387226 -3.020363
2011-11-18 06:45:29 51°14.17 2°55.389 10.4101 3.525931 31.387226 -3.020363
2011-11-18 06:45:34 51°14.179 2°55.383 10.4039 3.520133 31.345804 -3.020363
2011-11-18 06:45:38 51°14.187 2°55.377 10.3888 3.516303 31.325324 -3.020363
2011-11-18 06:45:43 51°14.196 2°55.371 10.4111 3.511954 31.295925 -3.020363
2011-11-18 06:45:48 51°14.205 2°55.364 10.3693 3.508538 31.26288 -3.020363
2011-11-18 06:45:54 51°14.217 2°55.356 10.4117 3.506571 31.250219 -3.020363
2011-11-18 06:45:59 51°14.226 2°55.349 10.3756 3.506571 31.250219 -3.020363
2011-11-18 06:46:04 51°14.235 2°55.342 10.358 3.504811 31.244135 -3.020363
2011-11-18 06:46:08 51°14.242 2°55.336 10.3596 3.503258 31.242367 -3.020363
2011-11-18 06:46:14 51°14.253 2°55.327 10.3706 3.501913 31.241892 -3.020363
2011-11-18 06:46:19 51°14.263 2°55.319 10.3421 3.500256 31.236073 -3.020363
2011-11-18 06:46:23 51°14.271 2°55.312 10.3587 3.499118 31.234624 -3.020363
2011-11-18 06:46:29 51°14.282 2°55.302 10.3581 3.499118 31.234624 -3.020363
2011-11-18 06:46:34 51°14.292 2°55.294 10.3154 3.497668 31.2248 -3.020363
2011-11-18 06:46:39 51°14.302 2°55.285 10.3474 3.496219 31.221783 -3.020363
2011-11-18 06:46:44 51°14.312 2°55.277 10.3173 3.495287 31.223899 -3.020363
2011-11-18 06:46:49 51°14.322 2°55.268 10.3125 3.480483 31.081663 -3.020363
2011-11-18 06:46:54 51°14.332 2°55.259 10.317 3.453567 30.819532 -3.020363
2011-11-18 06:46:59 51°14.343 2°55.251 10.3162 3.453567 30.819532 -3.020363
2011-11-18 06:47:04 51°14.353 2°55.242 10.2785 3.425618 30.547417 -3.020363
2011-11-18 06:47:09 51°14.364 2°55.233 10.3343 3.424687 30.549317 -3.020363
2011-11-18 06:47:14 51°14.374 2°55.223 10.314 3.421685 30.527026 -3.020363
2011-11-18 06:47:19 51°14.384 2°55.213 10.2998 3.420029 30.52175 -3.020363
2011-11-18 06:47:24 51°14.394 2°55.202 10.2974 3.417234 30.498532 -3.020363
2011-11-18 06:47:28 51°14.403 2°55.193 10.3044 3.417234 30.498532 -3.020363
2011-11-18 06:47:34 51°14.415 2°55.179 10.292 3.41682 30.503323 -3.020363
2011-11-18 06:47:39 51°14.425 2°55.168 10.3061 3.41682 30.50851 -3.020363
2011-11-18 06:47:44 51°14.435 2°55.156 10.2877 3.415889 30.501509 -3.020363
2011-11-18 06:47:48 51°14.443 2°55.146 10.2875 3.417027 30.512784 -3.020363
2011-11-18 06:47:53 51°14.453 2°55.133 10.3054 3.418166 30.529995 -3.020363
2011-11-18 06:47:58 51°14.463 2°55.121 10.2811 3.418166 30.529995 -3.020363
2011-11-18 06:48:03 51°14.473 2°55.108 10.2876 3.417959 30.531654 -3.020363
2011-11-18 06:48:08 51°14.484 2°55.095 10.2794 3.418994 30.543394 -3.020363
2011-11-18 06:48:14 51°14.496 2°55.079 10.2615 3.42034 30.558955 -3.020363
2011-11-18 06:48:19 51°14.507 2°55.065 10.2615 3.421582 30.57498 -3.020363
2011-11-18 06:48:24 51°14.518 2°55.051 10.2275 3.42034 30.565642 -3.020363
2011-11-18 06:48:29 51°14.529 2°55.038 10.2371 3.42034 30.565642 -3.020363
2011-11-18 06:48:33 51°14.538 2°55.027 10.2206 3.420754 30.571976 -3.020363
2011-11-18 06:48:38 51°14.549 2°55.013 10.2108 3.419822 30.566459 -3.020363
2011-11-18 06:48:43 51°14.561 2°55 10.2253 3.420858 30.581183 -3.020363
2011-11-18 06:48:48 51°14.574 2°54.987 10.2122 3.418684 30.563349 -3.020363
2011-11-18 06:48:53 51°14.586 2°54.974 10.2051 3.417131 30.556875 -3.020363
2011-11-18 06:48:57 51°14.596 2°54.963 10.1906 3.417131 30.556875 -3.020363
2011-11-18 06:49:03 51°14.61 2°54.945 10.1848 3.416096 30.559997 -3.020363
2011-11-18 06:49:08 51°14.622 2°54.93 10.1924 3.412991 30.538113 -3.020363
2011-11-18 06:49:13 51°14.634 2°54.915 10.1993 3.413612 30.553206 -3.020363
2011-11-18 06:49:17 51°14.645 2°54.904 10.2073 3.412474 30.550092 -3.020363
2011-11-18 06:49:23 51°14.66 2°54.888 10.1929 3.408127 30.511395 -3.020363
2011-11-18 06:49:28 51°14.673 2°54.873 10.1839 3.408127 30.511395 -3.020363
2011-11-18 06:49:33 51°14.687 2°54.86 10.2094 3.409265 30.533119 -3.020363
2011-11-18 06:49:37 51°14.697 2°54.849 10.199 3.40823 30.529539 -3.020363
2011-11-18 06:49:42 51°14.71 2°54.836 10.1985 3.408748 30.53766 -3.020363
2011-11-18 06:49:47 51°14.724 2°54.82 10.2358 3.405021 30.499899 -3.020363
2011-11-18 06:49:52 51°14.737 2°54.805 10.2152 3.404711 30.497558 -3.020363
2011-11-18 06:49:57 51°14.75 2°54.789 10.2376 3.404711 30.497558 -3.020363
2011-11-18 06:50:01 51°14.76 2°54.777 10.2434 3.408334 30.535036 -3.020363
2011-11-18 06:50:06 51°14.774 2°54.762 10.2555 3.407816 30.528405 -3.020363
2011-11-18 06:50:12 51°14.79 2°54.743 10.2697 3.406678 30.517838 -3.020363
2011-11-18 06:50:17 51°14.803 2°54.727 10.2871 3.408644 30.536631 -3.020363
2011-11-18 06:50:21 51°14.814 2°54.714 10.2885 3.412371 30.568435 -3.020363
2011-11-18 06:50:26 51°14.828 2°54.698 10.2974 3.412371 30.568435 -3.020363
2011-11-18 06:50:31 51°14.842 2°54.681 10.3057 3.415786 30.597149 -3.020363
2011-11-18 06:50:36 51°14.856 2°54.665 10.3101 3.423446 30.667275 -3.020363
2011-11-18 06:50:41 51°14.869 2°54.649 10.3331 3.429139 30.714863 -3.020363
2011-11-18 06:50:46 51°14.884 2°54.633 10.3311 3.433383 30.74879 -3.020363
2011-11-18 06:50:51 51°14.898 2°54.617 10.3479 3.437731 30.779236 -3.020363
2011-11-18 06:50:56 51°14.912 2°54.601 10.3546 3.437731 30.779236 -3.020363
2011-11-18 06:51:01 51°14.927 2°54.585 10.3687 3.441664 30.809305 -3.020363
2011-11-18 06:51:05 51°14.939 2°54.573 10.3925 3.446115 30.846756 -3.020363
2011-11-18 06:51:10 51°14.954 2°54.558 10.3901 3.451912 30.895308 -3.020363
2011-11-18 06:51:15 51°14.969 2°54.543 10.4117 3.457813 30.944875 -3.020363
2011-11-18 06:51:20 51°14.984 2°54.529 10.4241 3.460918 30.966677 -3.020363
2011-11-18 06:51:25 51°14.999 2°54.513 10.4498 3.460918 30.966677 -3.020363
2011-11-18 06:51:30 51°15.014 2°54.498 10.4787 3.46392 30.986689 -3.020363
2011-11-18 06:51:35 51°15.028 2°54.482 10.4908 3.468475 31.022105 -3.020363
2011-11-18 06:51:41 51°15.045 2°54.462 10.5104 3.470649 31.031618 -3.020363
2011-11-18 06:51:45 51°15.055 2°54.448 10.5352 3.474997 31.062693 -3.020363
2011-11-18 06:51:50 51°15.068 2°54.429 10.5566 3.47479 31.048577 -3.020363
2011-11-18 06:51:55 51°15.081 2°54.411 10.5654 3.47479 31.048577 -3.020363
2011-11-18 06:52:00 51°15.094 2°54.392 10.5663 3.479552 31.079211 -3.020363
2011-11-18 06:52:05 51°15.106 2°54.373 10.5806 3.481311 31.07932 -3.020363
2011-11-18 06:52:10 51°15.119 2°54.354 10.5827 3.487212 31.120447 -3.020363
2011-11-18 06:52:15 51°15.132 2°54.335 10.596 3.494666 31.176921 -3.020363
2011-11-18 06:52:20 51°15.145 2°54.316 10.6022 3.494665 31.158817 -3.020363
2011-11-18 06:52:25 51°15.159 2°54.297 10.5997 3.494665 31.158817 -3.020363
2011-11-18 06:52:30 51°15.172 2°54.281 10.6029 3.497357 31.166608 -3.020363
2011-11-18 06:52:35 51°15.187 2°54.265 10.6086 3.500048 31.177407 -3.020363
2011-11-18 06:52:41 51°15.204 2°54.246 10.6113 3.502429 31.191909 -3.020363
2011-11-18 06:52:46 51°15.218 2°54.23 10.626 3.506674 31.223319 -3.020363
2011-11-18 06:52:50 51°15.229 2°54.217 10.6305 3.530072 31.445618 -3.020363
2011-11-18 06:52:56 51°15.246 2°54.197 10.6433 3.530072 31.445618 -3.020363
2011-11-18 06:53:01 51°15.261 2°54.181 10.6397 3.533385 31.470037 -3.020363
2011-11-18 06:53:06 51°15.275 2°54.164 10.6555 3.53556 31.486224 -3.020363
2011-11-18 06:53:10 51°15.286 2°54.151 10.6526 3.536491 31.491641 -3.020363
2011-11-18 06:53:15 51°15.3 2°54.134 10.646 3.537941 31.499896 -3.020363
2011-11-18 06:53:20 51°15.315 2°54.118 10.6502 3.53939 31.505869 -3.020363
2011-11-18 06:53:26 51°15.331 2°54.098 10.6538 3.53939 31.505869 -3.020363
2011-11-18 06:53:30 51°15.343 2°54.084 10.6505 3.540736 31.513856 -3.020363
2011-11-18 06:53:35 51°15.356 2°54.068 10.651 3.542393 31.523392 -3.020363
2011-11-18 06:53:40 51°15.37 2°54.051 10.6582 3.54291 31.520151 -3.020363
2011-11-18 06:53:45 51°15.384 2°54.035 10.6663 3.542807 31.51533 -3.020363
2011-11-18 06:53:50 51°15.399 2°54.018 10.6594 3.544153 31.52635 -3.020363
2011-11-18 06:53:55 51°15.413 2°54.001 10.6581 3.544153 31.52635 -3.020363
2011-11-18 06:54:00 51°15.426 2°53.984 10.6569 3.544567 31.529682 -3.020363
2011-11-18 06:54:06 51°15.443 2°53.963 10.6566 3.544877 31.531991 -3.020363
2011-11-18 06:54:10 51°15.453 2°53.949 10.6688 3.544567 31.527403 -3.020363
2011-11-18 06:54:15 51°15.467 2°53.931 10.6569 3.54643 31.543536 -3.020363
2011-11-18 06:54:20 51°15.48 2°53.913 10.6724 3.544567 31.522088 -3.020363
2011-11-18 06:54:25 51°15.494 2°53.895 10.6624 3.544567 31.522088 -3.020363
2011-11-18 06:54:30 51°15.507 2°53.877 10.6664 3.543738 31.512389 -3.020363
2011-11-18 06:54:35 51°15.52 2°53.859 10.6672 3.542185 31.49705 -3.020363
2011-11-18 06:54:40 51°15.533 2°53.841 10.6728 3.54115 31.486825 -3.020363
2011-11-18 06:54:45 51°15.547 2°53.822 10.6658 3.541771 31.491443 -3.020363
2011-11-18 06:54:50 51°15.56 2°53.804 10.676 3.541668 31.490421 -3.020363
2011-11-18 06:54:55 51°15.573 2°53.786 10.675 3.541668 31.490421 -3.020363
2011-11-18 06:55:00 51°15.587 2°53.768 10.671 3.540943 31.482506 -3.020363
2011-11-18 06:55:05 51°15.6 2°53.75 10.6742 3.540529 31.4769 -3.020363
2011-11-18 06:55:10 51°15.613 2°53.733 10.67 3.540529 31.476142 -3.020363
2011-11-18 06:55:15 51°15.627 2°53.716 10.6717 3.540322 31.472582 -3.020363
2011-11-18 06:55:20 51°15.641 2°53.699 10.6718 3.540114 31.46978 -3.020363
2011-11-18 06:55:25 51°15.655 2°53.682 10.6757 3.540114 31.46978 -3.020363
2011-11-18 06:55:30 51°15.669 2°53.666 10.6744 3.539493 31.461374 -3.020363
2011-11-18 06:55:36 51°15.687 2°53.647 10.6729 3.547983 31.544442 -3.020363
2011-11-18 06:55:40 51°15.698 2°53.634 10.6767 3.548087 31.543946 -3.020363
2011-11-18 06:55:45 51°15.713 2°53.619 10.6698 3.546948 31.532699 -3.020363
2011-11-18 06:55:50 51°15.728 2°53.603 10.6832 3.544877 31.513012 -3.020363
2011-11-18 06:55:54 51°15.739 2°53.591 10.6736 3.544877 31.513012 -3.020363
2011-11-18 06:56:00 51°15.757 2°53.572 10.6851 3.541875 31.483367 -3.020363
2011-11-18 06:56:05 51°15.772 2°53.556 10.6779 3.540632 31.471102 -3.020363
2011-11-18 06:56:11 51°15.789 2°53.537 10.6768 3.539804 31.462168 -3.020363
2011-11-18 06:56:15 51°15.801 2°53.524 10.6846 3.536076 31.424622 -3.020363
2011-11-18 06:56:20 51°15.815 2°53.508 10.6774 3.535559 31.418756 -3.020363
2011-11-18 06:56:25 51°15.829 2°53.491 10.6829 3.535559 31.418756 -3.020363
2011-11-18 06:56:30 51°15.843 2°53.475 10.6822 3.532453 31.38735 -3.020363
2011-11-18 06:56:36 51°15.86 2°53.454 10.6862 3.530278 31.365897 -3.020363
2011-11-18 06:56:40 51°15.871 2°53.441 10.6872 3.528622 31.348044 -3.020363
2011-11-18 06:56:46 51°15.888 2°53.421 10.695 3.527897 31.341649 -3.020363
2011-11-18 06:56:51 51°15.902 2°53.403 10.6986 3.526862 31.331436 -3.020363
2011-11-18 06:56:55 51°15.913 2°53.391 10.691 3.526862 31.331436 -3.020363
2011-11-18 06:57:00 51°15.928 2°53.375 10.6988 3.523238 31.294186 -3.020363
2011-11-18 06:57:05 51°15.942 2°53.359 10.6987 3.522203 31.283222 -3.020363
2011-11-18 06:57:11 51°15.96 2°53.342 10.7062 3.519821 31.258235 -3.020363
2011-11-18 06:57:15 51°15.972 2°53.331 10.7058 3.519925 31.256999 -3.020363
2011-11-18 06:57:20 51°15.988 2°53.317 10.7086 3.518993 31.244805 -3.020363
2011-11-18 06:57:25 51°16.004 2°53.305 10.7048 3.518993 31.244805 -3.020363
2011-11-18 06:57:30 51°16.02 2°53.292 10.7089 3.517233 31.224449 -3.020363
2011-11-18 06:57:35 51°16.036 2°53.28 10.7172 3.513713 31.187505 -3.020363
2011-11-18 06:57:40 51°16.052 2°53.268 10.72 3.504188 31.091421 -3.020363
2011-11-18 06:57:45 51°16.068 2°53.256 10.7252 3.48752 30.924335 -3.020363
2011-11-18 06:57:50 51°16.084 2°53.245 10.7253 3.48752 30.922104 -3.020363
2011-11-18 06:57:55 51°16.1 2°53.233 10.7315 3.48752 30.922104 -3.020363
2011-11-18 06:58:00 51°16.116 2°53.222 10.7376 3.485346 30.898482 -3.020363
2011-11-18 06:58:05 51°16.133 2°53.211 10.7422 3.488452 30.928298 -3.020363
2011-11-18 06:58:10 51°16.149 2°53.199 10.7421 3.48783 30.919212 -3.020363
2011-11-18 06:58:15 51°16.165 2°53.188 10.747 3.491247 30.949108 -3.020363
2011-11-18 06:58:21 51°16.185 2°53.175 10.7523 3.490729 30.940296 -3.020363
2011-11-18 06:58:25 51°16.197 2°53.165 10.7561 3.490729 30.940296 -3.020363
2011-11-18 06:58:30 51°16.213 2°53.154 10.7593 3.491868 30.948524 -3.020363
2011-11-18 06:58:35 51°16.23 2°53.142 10.7707 3.47696 30.797482 -3.020363
2011-11-18 06:58:40 51°16.246 2°53.131 10.7711 3.483068 30.85382 -3.020363
2011-11-18 06:58:45 51°16.262 2°53.119 10.7743 3.295309 29.012165 -3.020363
2011-11-18 06:58:51 51°16.281 2°53.106 10.7751 3.298827 29.042981 -3.020363
2011-11-18 06:58:56 51°16.298 2°53.094 10.7772 3.298827 29.042981 -3.020363
2011-11-18 06:59:00 51°16.31 2°53.084 10.7828 3.287237 28.926551 -3.020363
2011-11-18 06:59:05 51°16.326 2°53.072 10.7867 3.284546 28.896873 -3.020363
2011-11-18 06:59:11 51°16.345 2°53.057 10.7914 3.304002 29.08226 -3.020363
2011-11-18 06:59:16 51°16.36 2°53.044 10.7979 3.286512 28.907701 -3.020363
2011-11-18 06:59:20 51°16.373 2°53.033 10.7998 3.296964 29.006027 -3.020363
2011-11-18 06:59:25 51°16.388 2°53.019 10.8062 3.296964 29.006027 -3.020363
2011-11-18 06:59:31 51°16.406 2°53.001 10.8077 3.285788 28.89441 -3.020363
2011-11-18 06:59:36 51°16.422 2°52.988 10.814 3.299862 29.028686 -3.020363
2011-11-18 06:59:40 51°16.434 2°52.976 10.8224 3.293756 28.965748 -3.020363
2011-11-18 06:59:45 51°16.449 2°52.962 10.8284 3.290755 28.933755 -3.020363
2011-11-18 06:59:50 51°16.464 2°52.948 10.829 3.282787 28.852051 -3.020363
2011-11-18 06:59:56 51°16.482 2°52.931 10.8342 3.282787 28.852051 -3.020363
2011-11-18 07:00:00 51°16.494 2°52.92 10.8399 3.288789 28.9063 -3.020363
2011-11-18 07:00:05 51°16.51 2°52.907 10.8435 3.30752 29.084464 -3.020363
2011-11-18 07:00:10 51°16.526 2°52.894 10.8488 3.282373 28.835585 -3.020363
2011-11-18 07:00:15 51°16.542 2°52.881 10.8559 3.301207 29.013269 -3.020363
2011-11-18 07:00:20 51°16.558 2°52.869 10.8576 3.299447 28.991983 -3.020363
2011-11-18 07:00:25 51°16.574 2°52.857 10.8617 3.299447 28.991983 -3.020363
2011-11-18 07:00:30 51°16.59 2°52.845 10.8723 3.308244 29.07271 -3.020363
2011-11-18 07:00:35 51°16.606 2°52.834 10.8766 3.309279 29.078604 -3.020363
2011-11-18 07:00:40 51°16.623 2°52.823 10.8811 3.33629 29.336681 -3.020363
2011-11-18 07:00:46 51°16.643 2°52.81 10.8926 3.288064 28.862598 -3.020363
2011-11-18 07:00:51 51°16.659 2°52.799 10.8919 3.284856 28.827286 -3.020363
2011-11-18 07:00:56 51°16.676 2°52.788 10.8951 3.284856 28.827286 -3.020363
2011-11-18 07:01:00 51°16.689 2°52.778 10.9024 3.298205 28.952171 -3.020363
2011-11-18 07:01:06 51°16.708 2°52.765 10.9044 3.305139 29.015407 -3.020363
2011-11-18 07:01:10 51°16.721 2°52.755 10.9055 3.293652 28.898242 -3.020363
2011-11-18 07:01:16 51°16.74 2°52.742 10.9058 3.297998 28.934932 -3.020363
2011-11-18 07:01:20 51°16.753 2°52.733 10.9088 3.294066 28.8919 -3.020363
2011-11-18 07:01:25 51°16.77 2°52.721 10.9138 3.294066 28.8919 -3.020363
2011-11-18 07:01:31 51°16.789 2°52.708 10.9161 3.301413 28.958417 -3.020363
2011-11-18 07:01:36 51°16.805 2°52.697 10.921 3.296756 28.909048 -3.020363
2011-11-18 07:01:40 51°16.818 2°52.688 10.9293 3.2951 28.888831 -3.020363
2011-11-18 07:01:45 51°16.834 2°52.676 10.9327 3.304207 28.974478 -3.020363
2011-11-18 07:01:50 51°16.851 2°52.665 10.9411 3.301206 28.943266 -3.020363
2011-11-18 07:01:56 51°16.87 2°52.651 10.9528 3.301206 28.943266 -3.020363
2011-11-18 07:02:00 51°16.883 2°52.642 10.9659 3.288581 28.817984 -3.020363
2011-11-18 07:02:05 51°16.899 2°52.63 10.977 3.286511 28.795155 -3.020363
2011-11-18 07:02:10 51°16.915 2°52.618 10.9903 3.314556 29.063185 -3.020363
2011-11-18 07:02:16 51°16.935 2°52.604 11.0066 3.307104 28.986691 -3.020363
2011-11-18 07:02:20 51°16.948 2°52.594 11.013 3.282889 28.746985 -3.020363
2011-11-18 07:02:25 51°16.963 2°52.581 11.0258 3.282889 28.746985 -3.020363
2011-11-18 07:02:30 51°16.979 2°52.569 11.0363 3.306276 28.968974 -3.020363
2011-11-18 07:02:35 51°16.995 2°52.556 11.0482 3.305138 28.950331 -3.020363
2011-11-18 07:02:40 51°17.011 2°52.544 11.0583 3.316418 29.050063 -3.020363
2011-11-18 07:02:45 51°17.027 2°52.531 11.0699 3.283923 28.723429 -3.020363
2011-11-18 07:02:50 51°17.043 2°52.519 11.0771 3.298721 28.857133 -3.020363
2011-11-18 07:02:56 51°17.062 2°52.503 11.0822 3.298721 28.857133 -3.020363
2011-11-18 07:03:00 51°17.075 2°52.493 11.0863 3.292512 28.7874 -3.020363
2011-11-18 07:03:06 51°17.094 2°52.477 11.0903 3.284647 28.700347 -3.020363
2011-11-18 07:03:10 51°17.106 2°52.467 11.0889 3.291063 28.752149 -3.020363
2011-11-18 07:03:16 51°17.125 2°52.451 11.0921 3.325938 29.080036 -3.020363
2011-11-18 07:03:20 51°17.138 2°52.441 11.0908 3.295306 28.773334 -3.020363
2011-11-18 07:03:25 51°17.153 2°52.427 11.0885 3.295306 28.773334 -3.020363
2011-11-18 07:03:30 51°17.169 2°52.414 11.0889 3.297168 28.783814 -3.020363
2011-11-18 07:03:36 51°17.188 2°52.398 11.0889 3.31207 28.92102 -3.020363
2011-11-18 07:03:40 51°17.2 2°52.387 11.0831 3.303067 28.828499 -3.020363
2011-11-18 07:03:45 51°17.216 2°52.374 11.0839 3.314036 28.930408 -3.020363
2011-11-18 07:03:51 51°17.234 2°52.358 11.0815 3.299755 28.789659 -3.020363
2011-11-18 07:03:56 51°17.25 2°52.345 11.0786 3.299755 28.789659 -3.020363
2011-11-18 07:04:00 51°17.262 2°52.335 11.0742 3.293649 28.72864 -3.020363
2011-11-18 07:04:05 51°17.279 2°52.322 11.0702 3.29189 28.711653 -3.020363
2011-11-18 07:04:10 51°17.295 2°52.309 11.0666 3.296961 28.76062 -3.020363
2011-11-18 07:04:16 51°17.314 2°52.294 11.0641 3.319728 28.980619 -3.020363
2011-11-18 07:04:20 51°17.326 2°52.284 11.0645 3.295512 28.747311 -3.020363
2011-11-18 07:04:25 51°17.342 2°52.272 11.066 3.295512 28.747311 -3.020363
2011-11-18 07:04:30 51°17.358 2°52.26 11.0656 3.293546 28.729688 -3.020363
2011-11-18 07:04:35 51°17.374 2°52.248 11.0684 3.294684 28.742729 -3.020363
2011-11-18 07:04:40 51°17.391 2°52.236 11.0685 3.291269 28.711795 -3.020363
2011-11-18 07:04:45 51°17.408 2°52.224 11.0763 3.301721 28.815498 -3.020363
2011-11-18 07:04:50 51°17.424 2°52.212 11.0799 3.291373 28.71757 -3.020363
2011-11-18 07:04:56 51°17.444 2°52.199 11.0883 3.291373 28.71757 -3.020363
2011-11-18 07:05:00 51°17.457 2°52.189 11.0917 3.305964 28.860617 -3.020363
2011-11-18 07:05:06 51°17.476 2°52.174 11.0982 3.336287 29.154615 -3.020363
2011-11-18 07:05:10 51°17.489 2°52.163 11.1046 3.316831 28.966367 -3.020363
2011-11-18 07:05:16 51°17.508 2°52.147 11.1118 3.311346 28.911954 -3.020363
2011-11-18 07:05:20 51°17.52 2°52.135 11.117 3.301308 28.812183 -3.020363
2011-11-18 07:05:25 51°17.535 2°52.121 11.1247 3.301308 28.812183 -3.020363
2011-11-18 07:05:30 51°17.55 2°52.107 11.1282 3.296858 28.767137 -3.020363
2011-11-18 07:05:35 51°17.565 2°52.092 11.1326 3.299341 28.787028 -3.020363
2011-11-18 07:05:40 51°17.58 2°52.078 11.1396 3.298306 28.77293 -3.020363
2011-11-18 07:05:46 51°17.599 2°52.062 11.1446 3.297996 28.764467 -3.020363
2011-11-18 07:05:51 51°17.615 2°52.049 11.1495 3.336494 29.131003 -3.020363
2011-11-18 07:05:56 51°17.631 2°52.036 11.1523 3.336494 29.131003 -3.020363
2011-11-18 07:06:00 51°17.644 2°52.025 11.1561 3.308862 28.85914 -3.020363
2011-11-18 07:06:05 51°17.66 2°52.012 11.1615 3.288785 28.659217 -3.020363
2011-11-18 07:06:11 51°17.678 2°51.996 11.1656 3.328318 29.036092 -3.020363
2011-11-18 07:06:16 51°17.694 2°51.982 11.1695 3.288475 28.646706 -3.020363
2011-11-18 07:06:20 51°17.706 2°51.971 11.1715 3.301617 28.768707 -3.020363
2011-11-18 07:06:25 51°17.722 2°51.957 11.1743 3.301617 28.768707 -3.020363
2011-11-18 07:06:31 51°17.741 2°51.941 11.176 3.330905 29.046619 -3.020363
2011-11-18 07:06:36 51°17.756 2°51.927 11.1798 3.293545 28.682684 -3.020363
2011-11-18 07:06:40 51°17.768 2°51.916 11.1835 3.312897 28.864552 -3.020363
2011-11-18 07:06:46 51°17.787 2°51.9 11.1869 3.313415 28.865439 -3.020363
2011-11-18 07:06:50 51°17.799 2°51.889 11.188 3.304722 28.778186 -3.020363
2011-11-18 07:06:55 51°17.814 2°51.875 11.1895 3.304722 28.778186 -3.020363
2011-11-18 07:07:00 51°17.83 2°51.861 11.1931 3.306791 28.795413 -3.020363
2011-11-18 07:07:05 51°17.845 2°51.847 11.1954 3.288785 28.619154 -3.020363
2011-11-18 07:07:10 51°17.86 2°51.833 11.1956 3.284645 28.576575 -3.020363
2011-11-18 07:07:15 51°17.876 2°51.819 11.1983 3.291889 28.642956 -3.020363
2011-11-18 07:07:20 51°17.892 2°51.806 11.201 3.299651 28.715009 -3.020363
2011-11-18 07:07:25 51°17.907 2°51.792 11.2053 3.299651 28.715009 -3.020363
2011-11-18 07:07:31 51°17.926 2°51.777 11.2068 3.274608 28.471835 -3.020363
2011-11-18 07:07:36 51°17.942 2°51.766 11.2094 3.280506 28.526579 -3.020363
2011-11-18 07:07:40 51°17.955 2°51.756 11.2097 3.280816 28.527541 -3.020363
2011-11-18 07:07:46 51°17.975 2°51.743 11.2135 3.292613 28.638402 -3.020363
2011-11-18 07:07:51 51°17.991 2°51.732 11.2151 3.302548 28.732042 -3.020363
2011-11-18 07:07:56 51°18.008 2°51.721 11.2161 3.302548 28.732042 -3.020363
2011-11-18 07:08:00 51°18.021 2°51.712 11.2191 3.295511 28.661555 -3.020363
2011-11-18 07:08:05 51°18.038 2°51.701 11.2224 3.292406 28.628954 -3.020363
2011-11-18 07:08:11 51°18.058 2°51.687 11.2266 3.310931 28.805299 -3.020363
2011-11-18 07:08:16 51°18.074 2°51.676 11.2283 3.304411 28.73978 -3.020363
2011-11-18 07:08:20 51°18.087 2°51.667 11.2318 3.336079 29.042888 -3.020363
2011-11-18 07:08:25 51°18.103 2°51.656 11.2326 3.336079 29.042888 -3.020363
2011-11-18 07:08:31 51°18.122 2°51.642 11.2355 3.287543 28.573349 -3.020363
2011-11-18 07:08:36 51°18.138 2°51.63 11.2381 3.308447 28.773883 -3.020363
2011-11-18 07:08:40 51°18.151 2°51.621 11.2419 3.300478 28.695124 -3.020363
2011-11-18 07:08:46 51°18.17 2°51.607 11.244 3.286922 28.561969 -3.020363
2011-11-18 07:08:50 51°18.183 2°51.597 11.2479 3.295304 28.641258 -3.020363
2011-11-18 07:08:56 51°18.203 2°51.583 11.2519 3.295304 28.641258 -3.020363
2011-11-18 07:09:00 51°18.216 2°51.574 11.254 3.289198 28.580489 -3.020363
2011-11-18 07:09:05 51°18.232 2°51.562 11.2577 3.283093 28.519746 -3.020363
2011-11-18 07:09:10 51°18.248 2°51.55 11.2623 3.330594 28.97492 -3.020363
2011-11-18 07:09:15 51°18.264 2°51.538 11.2642 3.291682 28.597617 -3.020363
2011-11-18 07:09:20 51°18.28 2°51.527 11.2666 3.324384 28.910312 -3.020363
2011-11-18 07:09:25 51°18.297 2°51.515 11.27 3.324384 28.910312 -3.020363
2011-11-18 07:09:31 51°18.316 2°51.501 11.2728 3.301409 28.686446 -3.020363
2011-11-18 07:09:36 51°18.332 2°51.489 11.2745 3.294683 28.619038 -3.020363
2011-11-18 07:09:40 51°18.345 2°51.479 11.2776 3.306687 28.732471 -3.020363
2011-11-18 07:09:46 51°18.365 2°51.465 11.2799 3.304824 28.711157 -3.020363
2011-11-18 07:09:51 51°18.381 2°51.452 11.2827 3.317139 28.826922 -3.020363
2011-11-18 07:09:56 51°18.397 2°51.439 11.2849 3.317139 28.826922 -3.020363
2011-11-18 07:10:00 51°18.41 2°51.43 11.2892 3.293751 28.59859 -3.020363
2011-11-18 07:10:06 51°18.429 2°51.414 11.2929 3.273261 28.400391 -3.020363
2011-11-18 07:10:10 51°18.441 2°51.404 11.2972 3.316001 28.808479 -3.020363
2011-11-18 07:10:15 51°18.458 2°51.392 11.2992 3.272847 28.39105 -3.020363
2011-11-18 07:10:20 51°18.473 2°51.378 11.2997 3.284748 28.503315 -3.020363
2011-11-18 07:10:25 51°18.489 2°51.366 11.3017 3.284748 28.503315 -3.020363
2011-11-18 07:10:31 51°18.508 2°51.35 11.3058 3.257843 28.242374 -3.020363
2011-11-18 07:10:36 51°18.524 2°51.336 11.3083 3.282678 28.477383 -3.020363
2011-11-18 07:10:40 51°18.537 2°51.326 11.3077 3.270571 28.357809 -3.020363
2011-11-18 07:10:45 51°18.552 2°51.312 11.3087 3.328834 28.914208 -3.020363
2011-11-18 07:10:50 51°18.567 2°51.298 11.309 3.275124 28.395472 -3.020363
2011-11-18 07:10:56 51°18.586 2°51.281 11.3111 3.275124 28.395472 -3.020363
2011-11-18 07:11:00 51°18.598 2°51.269 11.3127 3.258981 28.237958 -3.020363
2011-11-18 07:11:05 51°18.614 2°51.255 11.3128 3.268191 28.324273 -3.020363
2011-11-18 07:11:11 51°18.633 2°51.238 11.3124 3.281022 28.444696 -3.020363
2011-11-18 07:11:16 51°18.647 2°51.224 11.313 3.272847 28.364256 -3.020363
2011-11-18 07:11:20 51°18.66 2°51.213 11.3128 3.252979 28.173109 -3.020363
2011-11-18 07:11:26 51°18.678 2°51.197 11.3145 3.252979 28.173109 -3.020363
2011-11-18 07:11:31 51°18.694 2°51.185 11.3138 3.26819 28.316923 -3.020363
2011-11-18 07:11:35 51°18.707 2°51.174 11.3157 3.253703 28.176727 -3.020363
2011-11-18 07:11:40 51°18.723 2°51.163 11.3156 3.257843 28.215726 -3.020363
2011-11-18 07:11:46 51°18.743 2°51.149 11.3143 3.26105 28.245139 -3.020363
2011-11-18 07:11:51 51°18.759 2°51.137 11.3161 3.265603 28.288115 -3.020363
2011-11-18 07:11:56 51°18.777 2°51.126 11.3156 3.265603 28.288115 -3.020363
2011-11-18 07:12:00 51°18.79 2°51.116 11.3169 3.266121 28.29174 -3.020363
2011-11-18 07:12:06 51°18.81 2°51.102 11.313 3.258774 28.220658 -3.020363
2011-11-18 07:12:10 51°18.822 2°51.093 11.3156 3.354397 29.138244 -3.020363
2011-11-18 07:12:15 51°18.839 2°51.081 11.3136 3.255152 28.184626 -3.020363
2011-11-18 07:12:20 51°18.855 2°51.069 11.3127 3.293957 28.556729 -3.020363
2011-11-18 07:12:25 51°18.871 2°51.056 11.3112 3.293957 28.556729 -3.020363
2011-11-18 07:12:31 51°18.891 2°51.041 11.31 3.28899 28.509063 -3.020363
2011-11-18 07:12:36 51°18.907 2°51.028 11.3089 3.288576 28.504419 -3.020363
2011-11-18 07:12:40 51°18.92 2°51.018 11.3085 3.26105 28.240476 -3.020363
2011-11-18 07:12:45 51°18.936 2°51.004 11.3044 3.268294 28.310569 -3.020363
2011-11-18 07:12:51 51°18.956 2°50.988 11.3027 3.247184 28.108304 -3.020363
2011-11-18 07:12:56 51°18.971 2°50.974 11.2992 3.247184 28.108304 -3.020363
2011-11-18 07:13:00 51°18.983 2°50.963 11.2968 3.273675 28.362828 -3.020363
2011-11-18 07:13:05 51°18.998 2°50.948 11.2975 3.266224 28.292732 -3.020363
2011-11-18 07:13:11 51°19.017 2°50.932 11.2952 3.278228 28.408502 -3.020363
2011-11-18 07:13:16 51°19.033 2°50.917 11.2924 3.285058 28.475364 -3.020363
2011-11-18 07:13:20 51°19.046 2°50.906 11.2918 3.247598 28.117572 -3.020363
2011-11-18 07:13:26 51°19.065 2°50.889 11.2905 3.247598 28.117572 -3.020363
2011-11-18 07:13:30 51°19.077 2°50.879 11.2873 3.277711 28.40823 -3.020363
2011-11-18 07:13:36 51°19.096 2°50.862 11.2885 3.277711 28.40957 -3.020363
2011-11-18 07:13:40 51°19.108 2°50.851 11.2812 3.276883 28.402969 -3.020363
2011-11-18 07:13:45 51°19.125 2°50.838 11.284 3.252151 28.167834 -3.020363
2011-11-18 07:13:50 51°19.141 2°50.825 11.28 3.262189 28.264715 -3.020363
2011-11-18 07:13:55 51°19.157 2°50.813 11.2761 3.262189 28.264715 -3.020363
2011-11-18 07:14:00 51°19.172 2°50.8 11.2752 3.245529 28.10703 -3.020363
2011-11-18 07:14:05 51°19.189 2°50.789 11.2706 3.260533 28.252174 -3.020363
2011-11-18 07:14:11 51°19.209 2°50.775 11.2671 3.271088 28.355411 -3.020363
2011-11-18 07:14:16 51°19.226 2°50.764 11.2677 3.260326 28.253524 -3.020363
2011-11-18 07:14:20 51°19.239 2°50.754 11.2625 3.242218 28.081269 -3.020363
2011-11-18 07:14:26 51°19.259 2°50.741 11.2618 3.242218 28.081269 -3.020363
2011-11-18 07:14:31 51°19.276 2°50.73 11.2602 3.275538 28.402126 -3.020363
2011-11-18 07:14:36 51°19.292 2°50.718 11.2587 3.259912 28.254889 -3.020363
2011-11-18 07:14:40 51°19.305 2°50.709 11.2571 3.322521 28.858257 -3.020363
2011-11-18 07:14:45 51°19.321 2°50.696 11.2497 3.281126 28.461807 -3.020363
2011-11-18 07:14:51 51°19.341 2°50.682 11.2486 3.240045 28.069723 -3.020363
2011-11-18 07:14:56 51°19.357 2°50.67 11.2491 3.240045 28.069723 -3.020363
2011-11-18 07:15:00 51°19.371 2°50.66 11.2428 3.245322 28.124956 -3.020363
2011-11-18 07:15:05 51°19.387 2°50.648 11.2404 3.242632 28.100489 -3.020363
2011-11-18 07:15:10 51°19.404 2°50.636 11.2373 3.242735 28.103472 -3.020363
2011-11-18 07:15:16 51°19.423 2°50.622 11.2356 3.253911 28.213984 -3.020363
2011-11-18 07:15:20 51°19.436 2°50.612 11.231 3.232595 28.01288 -3.020363
2011-11-18 07:15:25 51°19.451 2°50.599 11.2296 3.232595 28.01288 -3.020363
2011-11-18 07:15:31 51°19.471 2°50.585 11.2262 3.221213 27.906435 -3.020363
2011-11-18 07:15:36 51°19.487 2°50.573 11.2221 3.3219 28.875468 -3.020363
2011-11-18 07:15:40 51°19.501 2°50.564 11.2198 3.238804 28.079037 -3.020363
2011-11-18 07:15:44 51°19.514 2°50.554 11.2159 3.223697 27.936172 -3.020363
2011-11-18 07:15:50 51°19.533 2°50.54 11.2121 3.241494 28.108828 -3.020363
2011-11-18 07:15:56 51°19.553 2°50.525 11.2082 3.241494 28.108828 -3.020363
2011-11-18 07:16:00 51°19.564 2°50.515 11.2051 3.222248 27.927566 -3.020363
2011-11-18 07:16:05 51°19.58 2°50.502 11.2011 3.273469 28.419835 -3.020363
2011-11-18 07:16:11 51°19.6 2°50.487 11.198 3.214488 27.857794 -3.020363
2011-11-18 07:16:16 51°19.616 2°50.474 11.1924 3.224628 27.957651 -3.020363
2011-11-18 07:16:20 51°19.628 2°50.463 11.1903 3.224318 27.956657 -3.020363
2011-11-18 07:16:26 51°19.647 2°50.447 11.1831 3.224318 27.956657 -3.020363
2011-11-18 07:16:31 51°19.663 2°50.434 11.1782 3.222973 27.947061 -3.020363
2011-11-18 07:16:36 51°19.68 2°50.42 11.175 3.23125 28.029121 -3.020363
2011-11-18 07:16:40 51°19.693 2°50.409 11.173 3.218731 27.912316 -3.020363
2011-11-18 07:16:46 51°19.711 2°50.392 11.1665 3.237873 28.099987 -3.020363
2011-11-18 07:16:51 51°19.727 2°50.377 11.1652 3.251532 28.233839 -3.020363
2011-11-18 07:16:56 51°19.741 2°50.363 11.1621 3.251532 28.233839 -3.020363
2011-11-18 07:17:00 51°19.754 2°50.351 11.1566 3.218938 27.92553 -3.020363
2011-11-18 07:17:05 51°19.769 2°50.337 11.1584 3.236217 28.094062 -3.020363
2011-11-18 07:17:11 51°19.788 2°50.321 11.152 3.256499 28.293617 -3.020363
2011-11-18 07:17:16 51°19.803 2°50.307 11.1496 3.221525 27.960278 -3.020363
2011-11-18 07:17:20 51°19.816 2°50.297 11.1452 3.215109 27.902664 -3.020363
2011-11-18 07:17:26 51°19.835 2°50.281 11.1442 3.215109 27.902664 -3.020363
2011-11-18 07:17:30 51°19.849 2°50.271 11.1358 3.224629 27.997371 -3.020363
2011-11-18 07:17:36 51°19.868 2°50.257 11.1381 3.26902 28.427491 -3.020363
2011-11-18 07:17:40 51°19.88 2°50.247 11.1392 3.211488 27.876487 -3.020363
2011-11-18 07:17:46 51°19.898 2°50.232 11.1344 3.211178 27.874828 -3.020363
2011-11-18 07:17:50 51°19.911 2°50.223 11.1286 3.276781 28.509627 -3.020363
2011-11-18 07:17:56 51°19.931 2°50.209 11.1347 3.276781 28.509627 -3.020363
2011-11-18 07:18:00 51°19.944 2°50.2 11.1234 3.212213 27.89269 -3.020363
2011-11-18 07:18:05 51°19.96 2°50.189 11.1197 3.210247 27.876453 -3.020363
2011-11-18 07:18:10 51°19.977 2°50.177 11.1188 3.215731 27.930448 -3.020363
2011-11-18 07:18:15 51°19.993 2°50.165 11.1188 3.194106 27.725439 -3.020363
2011-11-18 07:18:20 51°20.01 2°50.153 11.1111 3.222663 28.001037 -3.020363
2011-11-18 07:18:25 51°20.027 2°50.142 11.1074 3.222663 28.001037 -3.020363
2011-11-18 07:18:31 51°20.046 2°50.128 11.1056 3.201142 27.796932 -3.020363
2011-11-18 07:18:36 51°20.062 2°50.115 11.1048 3.211075 27.894979 -3.020363
2011-11-18 07:18:40 51°20.075 2°50.106 11.099 3.211489 27.902924 -3.020363
2011-11-18 07:18:46 51°20.094 2°50.09 11.0918 3.229078 28.074015 -3.020363
2011-11-18 07:18:50 51°20.107 2°50.08 11.0895 3.190382 27.704794 -3.020363
2011-11-18 07:18:55 51°20.123 2°50.066 11.0927 3.190382 27.704794 -3.020363
2011-11-18 07:19:00 51°20.137 2°50.052 11.0819 3.195969 27.762397 -3.020363
2011-11-18 07:19:05 51°20.154 2°50.039 11.0844 3.209316 27.893951 -3.020363
2011-11-18 07:19:11 51°20.173 2°50.023 11.0802 3.217904 27.977846 -3.020363
2011-11-18 07:19:16 51°20.189 2°50.011 11.0779 3.228665 28.085354 -3.020363
2011-11-18 07:19:20 51°20.202 2°50.002 11.0743 3.21211 27.931409 -3.020363
2011-11-18 07:19:25 51°20.217 2°49.99 11.0709 3.21211 27.931409 -3.020363
2011-11-18 07:19:31 51°20.236 2°49.977 11.0741 3.201453 27.832242 -3.020363
2011-11-18 07:19:36 51°20.253 2°49.967 11.0727 3.259397 28.393413 -3.020363
2011-11-18 07:19:40 51°20.266 2°49.958 11.0655 3.19659 27.790772 -3.020363
2011-11-18 07:19:45 51°20.283 2°49.948 11.0636 3.173311 27.569054 -3.020363
2011-11-18 07:19:50 51°20.3 2°49.939 11.0626 3.220077 28.021347 -3.020363
2011-11-18 07:19:56 51°20.321 2°49.928 11.0623 3.220077 28.021347 -3.020363
2011-11-18 07:20:00 51°20.335 2°49.921 11.0604 3.194003 27.773159 -3.020363
2011-11-18 07:20:05 51°20.353 2°49.913 11.058 3.183243 27.671695 -3.020363
2011-11-18 07:20:11 51°20.372 2°49.903 11.063 3.186554 27.705492 -3.020363
2011-11-18 07:20:16 51°20.39 2°49.895 11.0603 3.194624 27.785067 -3.020363
2011-11-18 07:20:20 51°20.404 2°49.889 11.0584 3.16969 27.546704 -3.020363
2011-11-18 07:20:26 51°20.425 2°49.88 11.0628 3.16969 27.546704 -3.020363
2011-11-18 07:20:30 51°20.44 2°49.875 11.0655 3.209006 27.925418 -3.020363
2011-11-18 07:20:35 51°20.457 2°49.868 11.0604 3.187589 27.721364 -3.020363
2011-11-18 07:20:40 51°20.475 2°49.86 11.0631 3.185933 27.707421 -3.020363
2011-11-18 07:20:46 51°20.496 2°49.85 11.0674 3.157586 27.43631 -3.020363
2011-11-18 07:20:50 51°20.51 2°49.844 11.0726 3.220801 28.043636 -3.020363
2011-11-18 07:20:55 51°20.527 2°49.836 11.076 3.220801 28.043636 -3.020363
2011-11-18 07:21:00 51°20.543 2°49.827 11.0798 3.235805 28.188184 -3.020363
2011-11-18 07:21:05 51°20.56 2°49.82 11.0837 3.17745 27.625857 -3.020363
2011-11-18 07:21:11 51°20.581 2°49.809 11.0883 3.207661 27.916452 -3.020363
2011-11-18 07:21:16 51°20.599 2°49.801 11.0912 3.192555 27.771103 -3.020363
2011-11-18 07:21:20 51°20.612 2°49.794 11.0941 3.230942 28.138645 -3.020363
2011-11-18 07:21:26 51°20.633 2°49.783 11.0968 3.230942 28.138645 -3.020363
2011-11-18 07:21:31 51°20.65 2°49.775 11.1027 3.152516 27.382426 -3.020363
2011-11-18 07:21:36 51°20.667 2°49.766 11.1051 3.169587 27.543748 -3.020363
2011-11-18 07:21:40 51°20.681 2°49.758 11.1084 3.185002 27.689258 -3.020363
2011-11-18 07:21:44 51°20.694 2°49.75 11.112 3.178587 27.624328 -3.020363
2011-11-18 07:21:51 51°20.716 2°49.736 11.1151 3.203005 27.855758 -3.020363
2011-11-18 07:21:56 51°20.733 2°49.725 11.1198 3.203005 27.855758 -3.020363
2011-11-18 07:22:00 51°20.746 2°49.717 11.1227 3.213765 27.955956 -3.020363
2011-11-18 07:22:05 51°20.763 2°49.707 11.1294 3.198245 27.804707 -3.020363
2011-11-18 07:22:10 51°20.78 2°49.697 11.1338 3.183347 27.65824 -3.020363
2011-11-18 07:22:16 51°20.8 2°49.685 11.1377 3.168138 27.509581 -3.020363
2011-11-18 07:22:20 51°20.814 2°49.678 11.1411 3.171242 27.537415 -3.020363
2011-11-18 07:22:25 51°20.831 2°49.669 11.1492 3.171242 27.537415 -3.020363
2011-11-18 07:22:31 51°20.853 2°49.66 11.157 3.17538 27.573873 -3.020363
2011-11-18 07:22:36 51°20.87 2°49.651 11.1653 3.163586 27.457421 -3.020363
2011-11-18 07:22:40 51°20.883 2°49.645 11.1682 3.201556 27.818711 -3.020363
2011-11-18 07:22:46 51°20.904 2°49.635 11.1729 3.147343 27.29453 -3.020363
2011-11-18 07:22:51 51°20.921 2°49.628 11.1754 3.181174 27.615087 -3.020363
2011-11-18 07:22:56 51°20.939 2°49.62 11.1806 3.181174 27.615087 -3.020363
2011-11-18 07:23:00 51°20.953 2°49.614 11.1843 3.175587 27.558207 -3.020363
2011-11-18 07:23:06 51°20.973 2°49.604 11.1874 3.192554 27.715142 -3.020363
2011-11-18 07:23:11 51°20.99 2°49.595 11.1901 3.177345 27.563973 -3.020363
2011-11-18 07:23:16 51°21.006 2°49.586 11.1921 3.146308 27.261345 -3.020363
2011-11-18 07:23:20 51°21.02 2°49.58 11.1944 3.15955 27.383642 -3.020363
2011-11-18 07:23:26 51°21.041 2°49.569 11.1962 3.15955 27.383642 -3.020363
2011-11-18 07:23:30 51°21.054 2°49.563 11.1995 3.158205 27.36687 -3.020363
2011-11-18 07:23:35 51°21.071 2°49.554 11.2015 3.186863 27.637598 -3.020363
2011-11-18 07:23:40 51°21.088 2°49.545 11.2027 3.165964 27.433402 -3.020363
2011-11-18 07:23:45 51°21.105 2°49.536 11.2076 3.198244 27.740185 -3.020363
2011-11-18 07:23:51 51°21.126 2°49.525 11.211 3.174034 27.50485 -3.020363
2011-11-18 07:23:56 51°21.142 2°49.515 11.2139 3.174034 27.50485 -3.020363
2011-11-18 07:24:00 51°21.156 2°49.509 11.219 3.191209 27.666821 -3.020363
2011-11-18 07:24:05 51°21.173 2°49.499 11.2256 3.142687 27.200259 -3.020363
2011-11-18 07:24:11 51°21.193 2°49.489 11.2321 3.214282 27.883496 -3.020363
2011-11-18 07:24:16 51°21.21 2°49.481 11.2398 3.14848 27.251164 -3.020363
2011-11-18 07:24:20 51°21.224 2°49.474 11.249 3.173724 27.490165 -3.020363
2011-11-18 07:24:24 51°21.238 2°49.467 11.2576 3.173724 27.490165 -3.020363
2011-11-18 07:24:30 51°21.258 2°49.457 11.2614 3.191209 27.653731 -3.020363
2011-11-18 07:24:36 51°21.278 2°49.446 11.266 3.185518 27.596603 -3.020363
2011-11-18 07:24:40 51°21.292 2°49.439 11.2688 3.14248 27.180915 -3.020363
2011-11-18 07:24:45 51°21.309 2°49.43 11.2704 3.168137 27.421755 -3.020363
2011-11-18 07:24:50 51°21.326 2°49.421 11.2696 3.193898 27.663148 -3.020363
2011-11-18 07:24:56 51°21.347 2°49.411 11.2686 3.193898 27.663148 -3.020363
2011-11-18 07:25:00 51°21.36 2°49.404 11.267 3.166481 27.39426 -3.020363
2011-11-18 07:25:05 51°21.377 2°49.396 11.2646 3.169378 27.416133 -3.020363
2011-11-18 07:25:11 51°21.397 2°49.386 11.2632 3.170516 27.421833 -3.020363
2011-11-18 07:25:16 51°21.413 2°49.377 11.2603 3.154997 27.26965 -3.020363
2011-11-18 07:25:20 51°21.426 2°49.369 11.2584 3.182 27.523856 -3.020363
2011-11-18 07:25:26 51°21.446 2°49.357 11.257 3.182 27.523856 -3.020363
2011-11-18 07:25:31 51°21.462 2°49.347 11.2577 3.186656 27.567082 -3.020363
2011-11-18 07:25:36 51°21.479 2°49.337 11.252 3.179517 27.497515 -3.020363
2011-11-18 07:25:40 51°21.492 2°49.329 11.2498 3.181379 27.515971 -3.020363
2011-11-18 07:25:46 51°21.512 2°49.317 11.2458 3.159135 27.304672 -3.020363
2011-11-18 07:25:51 51°21.529 2°49.307 11.2419 3.188828 27.589167 -3.020363
2011-11-18 07:25:56 51°21.546 2°49.296 11.2372 3.188828 27.589167 -3.020363
2011-11-18 07:26:00 51°21.559 2°49.288 11.2363 3.191415 27.615216 -3.020363
2011-11-18 07:26:04 51°21.572 2°49.279 11.234 3.148583 27.205816 -3.020363
2011-11-18 07:26:11 51°21.594 2°49.263 11.2319 3.140203 27.129015 -3.020363
2011-11-18 07:26:16 51°21.609 2°49.251 11.2283 3.164929 27.366487 -3.020363
2011-11-18 07:26:20 51°21.622 2°49.241 11.2273 3.170723 27.423811 -3.020363
2011-11-18 07:26:25 51°21.637 2°49.227 11.2279 3.170723 27.423811 -3.020363
2011-11-18 07:26:30 51°21.652 2°49.212 11.228 3.169792 27.417499 -3.020363
2011-11-18 07:26:36 51°21.669 2°49.193 11.2281 3.14848 27.215753 -3.020363
2011-11-18 07:26:40 51°21.679 2°49.178 11.2262 3.15417 27.273338 -3.020363
2011-11-18 07:26:45 51°21.692 2°49.161 11.2227 3.190794 27.626241 -3.020363
2011-11-18 07:26:50 51°21.705 2°49.143 11.2243 3.188415 27.606723 -3.020363
2011-11-18 07:26:55 51°21.718 2°49.125 11.221 3.188415 27.606723 -3.020363
2011-11-18 07:27:00 51°21.731 2°49.106 11.2212 3.131513 27.064608 -3.020363
2011-11-18 07:27:05 51°21.744 2°49.088 11.2217 3.177344 27.50402 -3.020363
2011-11-18 07:27:11 51°21.759 2°49.065 11.2194 3.131927 27.070479 -3.020363
2011-11-18 07:27:16 51°21.772 2°49.048 11.2198 3.179103 27.522153 -3.020363
2011-11-18 07:27:20 51°21.783 2°49.033 11.2191 3.132031 27.072747 -3.020363
2011-11-18 07:27:26 51°21.798 2°49.01 11.2194 3.132031 27.072747 -3.020363
2011-11-18 07:27:31 51°21.811 2°48.992 11.2165 3.180241 27.534347 -3.020363
2011-11-18 07:27:36 51°21.824 2°48.973 11.2171 3.146411 27.211417 -3.020363
2011-11-18 07:27:40 51°21.834 2°48.959 11.2173 3.184587 27.577249 -3.020363
2011-11-18 07:27:46 51°21.851 2°48.937 11.2201 3.155411 27.298748 -3.020363
2011-11-18 07:27:50 51°21.861 2°48.922 11.2228 3.150445 27.25127 -3.020363
2011-11-18 07:27:55 51°21.874 2°48.904 11.2252 3.150445 27.25127 -3.020363
2011-11-18 07:28:00 51°21.887 2°48.885 11.2282 3.140721 27.159611 -3.020363
2011-11-18 07:28:05 51°21.9 2°48.867 11.2314 3.135031 27.105246 -3.020363
2011-11-18 07:28:11 51°21.917 2°48.846 11.2355 3.174861 27.486757 -3.020363
2011-11-18 07:28:16 51°21.93 2°48.828 11.2386 3.101824 26.788245 -3.020363
2011-11-18 07:28:20 51°21.942 2°48.814 11.2426 3.148273 27.23179 -3.020363
2011-11-18 07:28:25 51°21.955 2°48.797 11.2505 3.148273 27.23179 -3.020363
2011-11-18 07:28:31 51°21.972 2°48.776 11.2565 3.192346 27.652208 -3.020363
2011-11-18 07:28:36 51°21.985 2°48.758 11.264 3.172689 27.462068 -3.020363
2011-11-18 07:28:40 51°21.996 2°48.744 11.2685 3.172275 27.455512 -3.020363
2011-11-18 07:28:44 51°22.007 2°48.729 11.2751 3.147135 27.213192 -3.020363
2011-11-18 07:28:50 51°22.023 2°48.708 11.28 3.125617 27.004477 -3.020363
2011-11-18 07:28:56 51°22.038 2°48.686 11.2844 3.125617 27.004477 -3.020363
2011-11-18 07:29:00 51°22.049 2°48.672 11.2927 3.123237 26.979216 -3.020363
2011-11-18 07:29:05 51°22.062 2°48.653 11.301 3.160377 27.329438 -3.020363
2011-11-18 07:29:10 51°22.075 2°48.635 11.3086 3.154376 27.268228 -3.020363
2011-11-18 07:29:16 51°22.091 2°48.613 11.3194 3.112686 26.865211 -3.020363
2011-11-18 07:29:20 51°22.101 2°48.598 11.3298 3.110823 26.842389 -3.020363
2011-11-18 07:29:25 51°22.115 2°48.58 11.3413 3.110823 26.842389 -3.020363
2011-11-18 07:29:31 51°22.131 2°48.559 11.3475 3.143927 27.153672 -3.020363
2011-11-18 07:29:36 51°22.145 2°48.542 11.3585 3.130685 27.023498 -3.020363
2011-11-18 07:29:40 51°22.156 2°48.528 11.368 3.15448 27.244764 -3.020363
2011-11-18 07:29:46 51°22.173 2°48.507 11.3778 3.147858 27.17516 -3.020363
2011-11-18 07:29:51 51°22.187 2°48.491 11.3857 3.123651 26.937984 -3.020363
2011-11-18 07:29:56 51°22.201 2°48.474 11.3945 3.123651 26.937984 -3.020363
2011-11-18 07:30:00 51°22.213 2°48.461 11.4029 3.126754 26.958655 -3.020363
2011-11-18 07:30:06 51°22.229 2°48.44 11.4069 3.120754 26.894534 -3.020363
2011-11-18 07:30:11 51°22.243 2°48.423 11.4198 3.130788 26.981827 -3.020363
2011-11-18 07:30:16 51°22.256 2°48.406 11.4246 3.174343 27.388577 -3.020363
2011-11-18 07:30:20 51°22.267 2°48.392 11.433 3.187275 27.50419 -3.020363
2011-11-18 07:30:24 51°22.278 2°48.377 11.4393 3.187275 27.50419 -3.020363
2011-11-18 07:30:31 51°22.297 2°48.352 11.4443 3.155927 27.196993 -3.020363
2011-11-18 07:30:35 51°22.308 2°48.337 11.452 3.130684 26.949736 -3.020363
2011-11-18 07:30:40 51°22.321 2°48.319 11.4575 3.13865 27.01852 -3.020363
2011-11-18 07:30:45 51°22.334 2°48.301 11.4637 3.167307 27.284862 -3.020363
2011-11-18 07:30:50 51°22.347 2°48.283 11.4686 3.146616 27.080929 -3.020363
2011-11-18 07:30:56 51°22.363 2°48.261 11.4758 3.146616 27.080929 -3.020363
2011-11-18 07:31:00 51°22.373 2°48.246 11.4795 3.161306 27.214295 -3.020363
2011-11-18 07:31:05 51°22.386 2°48.226 11.485 3.130477 26.91611 -3.020363
2011-11-18 07:31:11 51°22.401 2°48.203 11.4883 3.158513 27.1775 -3.020363
2011-11-18 07:31:16 51°22.413 2°48.182 11.4916 3.153961 27.127843 -3.020363
2011-11-18 07:31:20 51°22.422 2°48.166 11.496 3.156754 27.148021 -3.020363
2011-11-18 07:31:26 51°22.434 2°48.14 11.5001 3.156754 27.148021 -3.020363
2011-11-18 07:31:31 51°22.444 2°48.117 11.5036 3.116718 26.763443 -3.020363
2011-11-18 07:31:35 51°22.452 2°48.1 11.5085 3.170928 27.273174 -3.020363
2011-11-18 07:31:40 51°22.462 2°48.077 11.5111 3.145788 27.029857 -3.020363
2011-11-18 07:31:46 51°22.473 2°48.05 11.5144 3.129752 26.873247 -3.020363
2011-11-18 07:31:50 51°22.481 2°48.032 11.5186 3.155512 27.114578 -3.020363
2011-11-18 07:31:55 51°22.49 2°48.009 11.5213 3.155512 27.114578 -3.020363
2011-11-18 07:32:00 51°22.499 2°47.986 11.5229 3.139994 26.963469 -3.020363
2011-11-18 07:32:06 51°22.511 2°47.959 11.5269 3.13958 26.95575 -3.020363
2011-11-18 07:32:11 51°22.521 2°47.936 11.5293 3.135132 26.910398 -3.020363
2011-11-18 07:32:16 51°22.53 2°47.913 11.533 3.140511 26.95763 -3.020363
2011-11-18 07:32:20 51°22.538 2°47.896 11.5346 3.140718 26.957065 -3.020363
2011-11-18 07:32:26 51°22.551 2°47.868 11.5364 3.140718 26.957065 -3.020363
2011-11-18 07:32:31 51°22.56 2°47.846 11.5388 3.116407 26.722871 -3.020363
2011-11-18 07:32:36 51°22.57 2°47.823 11.5405 3.141442 26.956983 -3.020363
2011-11-18 07:32:40 51°22.578 2°47.804 11.5423 3.174858 27.270875 -3.020363
2011-11-18 07:32:45 51°22.587 2°47.781 11.5437 3.217382 27.67243 -3.020363
2011-11-18 07:32:51 51°22.598 2°47.753 11.545 3.132442 26.863479 -3.020363
2011-11-18 07:32:55 51°22.606 2°47.735 11.5457 3.132442 26.863479 -3.020363
2011-11-18 07:33:00 51°22.616 2°47.712 11.547 3.151787 27.044326 -3.020363
2011-11-18 07:33:05 51°22.626 2°47.689 11.5484 3.126338 26.801888 -3.020363
2011-11-18 07:33:10 51°22.636 2°47.666 11.5487 3.160478 27.123571 -3.020363
2011-11-18 07:33:16 51°22.647 2°47.639 11.5497 3.123752 26.773633 -3.020363
2011-11-18 07:33:20 51°22.655 2°47.62 11.5511 3.122717 26.761959 -3.020363
2011-11-18 07:33:25 51°22.665 2°47.598 11.5518 3.122717 26.761959 -3.020363
2011-11-18 07:33:31 51°22.678 2°47.571 11.5529 3.135338 26.880223 -3.020363
2011-11-18 07:33:36 51°22.689 2°47.549 11.5549 3.120752 26.740846 -3.020363
2011-11-18 07:33:40 51°22.697 2°47.532 11.5562 3.131821 26.844394 -3.020363
2011-11-18 07:33:46 51°22.71 2°47.506 11.5566 3.127372 26.801017 -3.020363
2011-11-18 07:33:51 51°22.721 2°47.484 11.558 3.15665 27.077755 -3.020363
2011-11-18 07:33:55 51°22.729 2°47.466 11.5604 3.15665 27.077755 -3.020363
2011-11-18 07:34:00 51°22.739 2°47.444 11.5614 3.150856 27.021575 -3.020363
2011-11-18 07:34:06 51°22.751 2°47.416 11.5638 3.179514 27.292704 -3.020363
2011-11-18 07:34:10 51°22.758 2°47.398 11.5651 3.148373 26.996149 -3.020363
2011-11-18 07:34:15 51°22.769 2°47.375 11.5669 3.142993 26.944551 -3.020363
2011-11-18 07:34:20 51°22.779 2°47.352 11.5689 3.114545 26.673984 -3.020363
2011-11-18 07:34:26 51°22.791 2°47.325 11.571 3.114545 26.673984 -3.020363
2011-11-18 07:34:31 51°22.801 2°47.303 11.5754 3.131614 26.834896 -3.020363
2011-11-18 07:34:36 51°22.811 2°47.28 11.5773 3.136993 26.884573 -3.020363
2011-11-18 07:34:40 51°22.82 2°47.262 11.581 3.153235 27.036532 -3.020363
2011-11-18 07:34:45 51°22.831 2°47.241 11.5833 3.183652 27.323024 -3.020363
2011-11-18 07:34:51 51°22.844 2°47.214 11.5858 3.133476 26.846872 -3.020363
2011-11-18 07:34:56 51°22.855 2°47.193 11.5888 3.133476 26.846872 -3.020363
2011-11-18 07:35:00 51°22.863 2°47.175 11.5917 3.14258 26.931177 -3.020363
2011-11-18 07:35:05 51°22.874 2°47.153 11.5949 3.149097 26.991009 -3.020363
2011-11-18 07:35:11 51°22.887 2°47.126 11.5968 3.122096 26.732301 -3.020363
2011-11-18 07:35:15 51°22.896 2°47.109 11.5999 3.167823 27.163358 -3.020363
2011-11-18 07:35:20 51°22.905 2°47.086 11.6031 3.102958 26.546394 -3.020363
2011-11-18 07:35:25 51°22.915 2°47.063 11.607 3.102958 26.546394 -3.020363
2011-11-18 07:35:30 51°22.925 2°47.041 11.6093 3.129648 26.797476 -3.020363
2011-11-18 07:35:36 51°22.937 2°47.013 11.6117 3.158408 27.067185 -3.020363
2011-11-18 07:35:40 51°22.944 2°46.995 11.6152 3.144855 26.936976 -3.020363
2011-11-18 07:35:45 51°22.954 2°46.971 11.618 3.142993 26.917464 -3.020363
2011-11-18 07:35:51 51°22.965 2°46.943 11.6213 3.169892 27.169625 -3.020363
2011-11-18 07:35:56 51°22.975 2°46.92 11.6258 3.169892 27.169625 -3.020363
2011-11-18 07:36:00 51°22.983 2°46.902 11.629 3.153959 27.016212 -3.020363
2011-11-18 07:36:06 51°22.995 2°46.874 11.6331 3.143407 26.91383 -3.020363
2011-11-18 07:36:11 51°23.005 2°46.851 11.638 3.136889 26.849668 -3.020363
2011-11-18 07:36:15 51°23.013 2°46.834 11.6429 3.159235 27.058574 -3.020363
2011-11-18 07:36:20 51°23.024 2°46.812 11.6469 3.1372 26.847585 -3.020363
2011-11-18 07:36:26 51°23.038 2°46.786 11.6506 3.1372 26.847585 -3.020363
2011-11-18 07:36:31 51°23.049 2°46.764 11.6562 3.152718 26.992474 -3.020363
2011-11-18 07:36:36 51°23.06 2°46.743 11.6619 3.176306 27.211956 -3.020363
2011-11-18 07:36:40 51°23.069 2°46.725 11.6656 3.108441 26.567767 -3.020363
2011-11-18 07:36:46 51°23.081 2°46.699 11.6704 3.185928 27.297356 -3.020363
2011-11-18 07:36:50 51°23.09 2°46.681 11.6758 3.115889 26.63125 -3.020363
2011-11-18 07:36:55 51°23.1 2°46.659 11.6803 3.115889 26.63125 -3.020363
2011-11-18 07:37:00 51°23.111 2°46.637 11.6847 3.141441 26.869491 -3.020363
2011-11-18 07:37:05 51°23.121 2°46.614 11.6918 3.173512 27.169638 -3.020363
2011-11-18 07:37:11 51°23.134 2°46.588 11.6993 3.150027 26.943738 -3.020363
2011-11-18 07:37:16 51°23.144 2°46.565 11.7036 3.177444 27.199227 -3.020363
2011-11-18 07:37:20 51°23.153 2°46.548 11.7088 3.126026 26.709526 -3.020363
2011-11-18 07:37:25 51°23.164 2°46.526 11.7155 3.126026 26.709526 -3.020363
2011-11-18 07:37:31 51°23.177 2°46.5 11.7257 3.151062 26.942828 -3.020363
2011-11-18 07:37:36 51°23.188 2°46.478 11.7318 3.188514 27.292539 -3.020363
2011-11-18 07:37:40 51°23.196 2°46.46 11.738 3.127474 26.711357 -3.020363
2011-11-18 07:37:46 51°23.209 2°46.433 11.7448 3.156027 26.97591 -3.020363
2011-11-18 07:37:50 51°23.218 2°46.416 11.7563 3.14413 26.859803 -3.020363
2011-11-18 07:37:56 51°23.231 2°46.389 11.765 3.14413 26.859803 -3.020363
2011-11-18 07:38:00 51°23.239 2°46.371 11.7735 3.191514 27.302466 -3.020363
2011-11-18 07:38:05 51°23.249 2°46.348 11.7805 3.161717 27.015179 -3.020363
2011-11-18 07:38:10 51°23.258 2°46.324 11.7874 3.13006 26.710851 -3.020363
2011-11-18 07:38:16 51°23.27 2°46.297 11.7919 3.142268 26.820347 -3.020363
2011-11-18 07:38:20 51°23.278 2°46.279 11.7998 3.152716 26.913271 -3.020363
2011-11-18 07:38:26 51°23.289 2°46.251 11.8064 3.152716 26.913271 -3.020363
2011-11-18 07:38:31 51°23.298 2°46.227 11.8105 3.120336 26.601846 -3.020363
2011-11-18 07:38:36 51°23.308 2°46.204 11.817 3.144026 26.817575 -3.020363
2011-11-18 07:38:40 51°23.316 2°46.186 11.8229 3.123439 26.616827 -3.020363
2011-11-18 07:38:46 51°23.327 2°46.158 11.8294 3.105646 26.443863 -3.020363
2011-11-18 07:38:51 51°23.337 2°46.135 11.835 3.117646 26.550567 -3.020363
2011-11-18 07:38:55 51°23.345 2°46.116 11.8415 3.117646 26.550567 -3.020363
2011-11-18 07:39:00 51°23.355 2°46.094 11.85 3.110198 26.47436 -3.020363
2011-11-18 07:39:06 51°23.366 2°46.066 11.8601 3.144853 26.796073 -3.020363
2011-11-18 07:39:10 51°23.374 2°46.048 11.8671 3.126853 26.621104 -3.020363
2011-11-18 07:39:15 51°23.384 2°46.025 11.8729 3.173511 27.054732 -3.020363
2011-11-18 07:39:20 51°23.394 2°46.002 11.8804 3.15044 26.832464 -3.020363
2011-11-18 07:39:25 51°23.403 2°45.979 11.8845 3.15044 26.832464 -3.020363
2011-11-18 07:39:31 51°23.415 2°45.951 11.8933 3.173304 27.042731 -3.020363
2011-11-18 07:39:36 51°23.424 2°45.928 11.9011 3.158302 26.895856 -3.020363
2011-11-18 07:39:40 51°23.432 2°45.91 11.9044 3.168441 26.986282 -3.020363
2011-11-18 07:39:45 51°23.442 2°45.887 11.9138 3.220897 27.473005 -3.020363
2011-11-18 07:39:51 51°23.455 2°45.86 11.9194 3.122714 26.543345 -3.020363
2011-11-18 07:39:56 51°23.465 2°45.838 11.9256 3.122714 26.543345 -3.020363
2011-11-18 07:40:00 51°23.474 2°45.82 11.9308 3.1313 26.617809 -3.020363
2011-11-18 07:40:06 51°23.487 2°45.793 11.935 3.159957 26.881485 -3.020363
2011-11-18 07:40:10 51°23.495 2°45.775 11.9417 3.130369 26.597348 -3.020363
2011-11-18 07:40:15 51°23.505 2°45.752 11.9467 3.173199 26.994126 -3.020363
2011-11-18 07:40:20 51°23.516 2°45.729 11.9515 3.155508 26.821636 -3.020363
2011-11-18 07:40:25 51°23.526 2°45.707 11.9547 3.155508 26.821636 -3.020363
2011-11-18 07:40:30 51°23.537 2°45.685 11.959 3.179614 27.043794 -3.020363
2011-11-18 07:40:35 51°23.547 2°45.662 11.9636 3.177131 27.01482 -3.020363
2011-11-18 07:40:40 51°23.558 2°45.64 11.9679 3.174648 26.986485 -3.020363
2011-11-18 07:40:46 51°23.571 2°45.613 11.9727 3.140093 26.656524 -3.020363
2011-11-18 07:40:51 51°23.581 2°45.591 11.9753 3.127782 26.536794 -3.020363
2011-11-18 07:40:56 51°23.591 2°45.568 11.9796 3.127782 26.536794 -3.020363
2011-11-18 07:41:00 51°23.6 2°45.551 11.9836 3.165439 26.886296 -3.020363
2011-11-18 07:41:06 51°23.613 2°45.524 11.9879 3.123748 26.491629 -3.020363
2011-11-18 07:41:11 51°23.623 2°45.502 11.992 3.201961 27.221846 -3.020363
2011-11-18 07:41:15 51°23.632 2°45.484 11.9957 3.180855 27.019796 -3.020363
2011-11-18 07:41:20 51°23.643 2°45.462 11.9996 3.13223 26.560054 -3.020363
2011-11-18 07:41:26 51°23.656 2°45.435 12.0052 3.13223 26.560054 -3.020363
2011-11-18 07:41:30 51°23.664 2°45.418 12.0105 3.207341 27.261073 -3.020363
2011-11-18 07:41:35 51°23.675 2°45.396 12.0142 3.112885 26.37221 -3.020363
2011-11-18 07:41:40 51°23.686 2°45.374 12.0185 3.160887 26.818132 -3.020363
2011-11-18 07:41:45 51°23.697 2°45.352 12.0249 3.152404 26.734282 -3.020363
2011-11-18 07:41:51 51°23.71 2°45.326 12.0299 3.186338 27.049395 -3.020363
2011-11-18 07:41:56 51°23.72 2°45.304 12.0359 3.186338 27.049395 -3.020363
2011-11-18 07:42:00 51°23.729 2°45.286 12.0404 3.134403 26.559529 -3.020363
2011-11-18 07:42:05 51°23.739 2°45.264 12.0441 3.115575 26.379698 -3.020363
2011-11-18 07:42:11 51°23.751 2°45.236 12.0483 3.137609 26.58157 -3.020363
2011-11-18 07:42:16 51°23.76 2°45.213 12.052 3.208272 27.240224 -3.020363
2011-11-18 07:42:20 51°23.768 2°45.195 12.0551 3.131609 26.51807 -3.020363
2011-11-18 07:42:26 51°23.78 2°45.168 12.0599 3.131609 26.51807 -3.020363
2011-11-18 07:42:30 51°23.787 2°45.149 12.064 3.144127 26.630897 -3.020363
2011-11-18 07:42:36 51°23.799 2°45.122 12.0668 3.144334 26.628531 -3.020363
2011-11-18 07:42:40 51°23.807 2°45.103 12.0703 3.124264 26.437169 -3.020363
2011-11-18 07:42:45 51°23.816 2°45.08 12.0753 3.14092 26.588614 -3.020363
2011-11-18 07:42:51 51°23.829 2°45.053 12.0799 3.122712 26.415352 -3.020363
2011-11-18 07:42:56 51°23.839 2°45.031 12.0833 3.122712 26.415352 -3.020363
2011-11-18 07:43:00 51°23.847 2°45.013 12.0875 3.146713 26.636659 -3.020363
2011-11-18 07:43:04 51°23.855 2°44.995 12.0921 3.140092 26.571067 -3.020363
2011-11-18 07:43:10 51°23.867 2°44.967 12.0942 3.189338 27.028845 -3.020363
2011-11-18 07:43:15 51°23.876 2°44.945 12.0974 3.151472 26.671332 -3.020363
2011-11-18 07:43:20 51°23.886 2°44.922 12.1002 3.129747 26.464613 -3.020363
2011-11-18 07:43:25 51°23.895 2°44.898 12.1023 3.129747 26.464613 -3.020363
2011-11-18 07:43:31 51°23.907 2°44.871 12.1053 3.139988 26.556629 -3.020363
2011-11-18 07:43:36 51°23.916 2°44.847 12.1073 3.131815 26.476618 -3.020363
2011-11-18 07:43:40 51°23.924 2°44.829 12.1101 3.12716 26.430101 -3.020363
2011-11-18 07:43:45 51°23.934 2°44.806 12.1136 3.126953 26.425735 -3.020363
2011-11-18 07:43:51 51°23.945 2°44.778 12.1164 3.127781 26.430417 -3.020363
2011-11-18 07:43:56 51°23.954 2°44.755 12.1189 3.127781 26.430417 -3.020363
2011-11-18 07:44:00 51°23.962 2°44.737 12.1206 3.176301 26.881343 -3.020363
2011-11-18 07:44:05 51°23.971 2°44.714 12.1235 3.128608 26.433272 -3.020363
2011-11-18 07:44:11 51°23.983 2°44.686 12.1258 3.128919 26.433125 -3.020363
2011-11-18 07:44:16 51°23.993 2°44.664 12.1284 3.198132 27.07816 -3.020363
2011-11-18 07:44:20 51°24.001 2°44.646 12.1308 3.142471 26.555353 -3.020363
2011-11-18 07:44:25 51°24.011 2°44.623 12.1326 3.142471 26.555353 -3.020363
2011-11-18 07:44:31 51°24.023 2°44.596 12.1346 3.220894 27.28631 -3.020363
2011-11-18 07:44:36 51°24.033 2°44.573 12.1372 3.178163 26.883904 -3.020363
2011-11-18 07:44:40 51°24.041 2°44.555 12.1393 3.124987 26.384901 -3.020363
2011-11-18 07:44:44 51°24.048 2°44.537 12.1428 3.195027 27.037279 -3.020363
2011-11-18 07:44:50 51°24.06 2°44.51 12.1446 3.137401 26.496443 -3.020363
2011-11-18 07:44:56 51°24.072 2°44.483 12.1475 3.137401 26.496443 -3.020363
2011-11-18 07:45:00 51°24.08 2°44.465 12.1497 3.124056 26.37015 -3.020363
2011-11-18 07:45:05 51°24.091 2°44.443 12.152 3.159437 26.697838 -3.020363
2011-11-18 07:45:10 51°24.101 2°44.421 12.1547 3.183336 26.919882 -3.020363
2011-11-18 07:45:16 51°24.114 2°44.394 12.1576 3.130367 26.423525 -3.020363
2011-11-18 07:45:20 51°24.123 2°44.378 12.1614 3.175473 26.842074 -3.020363
2011-11-18 07:45:26 51°24.136 2°44.351 12.1629 3.175473 26.842074 -3.020363
2011-11-18 07:45:31 51°24.147 2°44.33 12.1662 3.145264 26.558202 -3.020363
2011-11-18 07:45:36 51°24.158 2°44.308 12.168 3.12116 26.331636 -3.020363
2011-11-18 07:45:40 51°24.167 2°44.291 12.1717 3.10916 26.216832 -3.020363
2011-11-18 07:45:46 51°24.18 2°44.264 12.1755 3.122401 26.337754 -3.020363
2011-11-18 07:45:51 51°24.19 2°44.242 12.179 3.121677 26.329192 -3.020363
2011-11-18 07:45:56 51°24.201 2°44.22 12.1808 3.121677 26.329192 -3.020363
2011-11-18 07:46:00 51°24.209 2°44.203 12.1839 3.110815 26.225614 -3.020363
2011-11-18 07:46:05 51°24.22 2°44.181 12.1881 3.144229 26.535127 -3.020363
2011-11-18 07:46:11 51°24.233 2°44.154 12.1919 3.156333 26.645567 -3.020363
2011-11-18 07:46:16 51°24.244 2°44.133 12.1951 3.11847 26.290858 -3.020363
2011-11-18 07:46:20 51°24.252 2°44.115 12.1994 3.09447 26.065109 -3.020363
2011-11-18 07:46:26 51°24.264 2°44.088 12.2032 3.09447 26.065109 -3.020363
2011-11-18 07:46:30 51°24.273 2°44.071 12.2075 3.156229 26.637868 -3.020363
2011-11-18 07:46:36 51°24.285 2°44.044 12.2122 3.149815 26.575006 -3.020363
2011-11-18 07:46:40 51°24.293 2°44.026 12.2162 3.135332 26.437607 -3.020363
2011-11-18 07:46:46 51°24.305 2°43.999 12.2221 3.146091 26.534805 -3.020363
2011-11-18 07:46:50 51°24.313 2°43.981 12.2257 3.151263 26.580571 -3.020363
2011-11-18 07:46:56 51°24.325 2°43.954 12.2291 3.151263 26.580571 -3.020363
2011-11-18 07:47:00 51°24.332 2°43.936 12.234 3.130366 26.382873 -3.020363
2011-11-18 07:47:05 51°24.342 2°43.913 12.239 3.178473 26.82815 -3.020363
2011-11-18 07:47:10 51°24.351 2°43.891 12.2408 3.163988 26.689394 -3.020363
2011-11-18 07:47:16 51°24.362 2°43.864 12.2448 3.128711 26.357782 -3.020363
2011-11-18 07:47:20 51°24.37 2°43.847 12.249 3.1284 26.35187 -3.020363
2011-11-18 07:47:25 51°24.379 2°43.827 12.254 3.1284 26.35187 -3.020363
2011-11-18 07:47:31 51°24.389 2°43.804 12.2591 3.121883 26.287016 -3.020363
2011-11-18 07:47:36 51°24.398 2°43.786 12.2627 3.102538 26.104188 -3.020363
2011-11-18 07:47:40 51°24.405 2°43.773 12.2655 3.124262 26.301905 -3.020363
2011-11-18 07:47:46 51°24.414 2°43.754 12.269 3.115159 26.214265 -3.020363
2011-11-18 07:47:50 51°24.42 2°43.742 12.2711 3.136469 26.408785 -3.020363
2011-11-18 07:47:55 51°24.428 2°43.728 12.2745 3.136469 26.408785 -3.020363
2011-11-18 07:48:00 51°24.435 2°43.716 12.2765 3.133055 26.373405 -3.020363
2011-11-18 07:48:06 51°24.443 2°43.701 12.2785 3.091159 25.980617 -3.020363
2011-11-18 07:48:11 51°24.449 2°43.689 12.2807 3.127365 26.313265 -3.020363
2011-11-18 07:48:16 51°24.455 2°43.678 12.2822 3.126331 26.300637 -3.020363
2011-11-18 07:48:20 51°24.46 2°43.669 12.2837 3.080608 25.873833 -3.020363
2011-11-18 07:48:26 51°24.467 2°43.656 12.2851 3.080608 25.873833 -3.020363
2011-11-18 07:48:31 51°24.472 2°43.646 12.2862 3.115986 26.199129 -3.020363
2011-11-18 07:48:36 51°24.477 2°43.635 12.2868 3.120641 26.239957 -3.020363
2011-11-18 07:48:40 51°24.481 2°43.627 12.2879 3.140297 26.420767 -3.020363
2011-11-18 07:48:45 51°24.485 2°43.617 12.2885 3.147435 26.485306 -3.020363
2011-11-18 07:48:51 51°24.491 2°43.606 12.2898 3.140296 26.417137 -3.020363
2011-11-18 07:48:56 51°24.496 2°43.597 12.291 3.140296 26.417137 -3.020363
2011-11-18 07:49:00 51°24.499 2°43.59 12.2915 3.111434 26.147882 -3.020363
2011-11-18 07:49:06 51°24.504 2°43.58 12.2919 3.08547 25.905268 -3.020363
2011-11-18 07:49:10 51°24.508 2°43.574 12.2933 3.140917 26.419275 -3.020363
2011-11-18 07:49:16 51°24.513 2°43.564 12.2938 3.11671 26.193253 -3.020363
2011-11-18 07:49:20 51°24.516 2°43.559 12.2947 3.147021 26.474183 -3.020363
2011-11-18 07:49:25 51°24.52 2°43.552 12.2958 3.147021 26.474183 -3.020363
2011-11-18 07:49:30 51°24.524 2°43.546 12.2964 3.10202 26.055164 -3.020363
2011-11-18 07:49:35 51°24.528 2°43.541 12.2966 3.121779 26.237905 -3.020363
2011-11-18 07:49:40 51°24.532 2°43.536 12.2977 3.141124 26.416964 -3.020363
2011-11-18 07:49:46 51°24.537 2°43.531 12.2987 3.088056 25.923306 -3.020363
2011-11-18 07:49:51 51°24.54 2°43.528 12.299 3.131193 26.322302 -3.020363
2011-11-18 07:49:56 51°24.544 2°43.525 12.2993 3.131193 26.322302 -3.020363
2011-11-18 07:50:00 51°24.547 2°43.523 12.2999 3.104813 26.076892 -3.020363